TAM8120 SBGR-LIRF
Flight info
| Callsign | TAM8120 |
|---|---|
| Flight time | 10h 43m |
| Altitude | 31000 |
| Route | UREMI UZ42 CXI UL340 VUPIP UL206 MIMIR/N0494F330 UL206 KODOS DCT SEROD/N0490F350 DCT TURUP UA302 ANITI UR975 ARDAR UA854 BRENA UA29 TABAL/N0474F370 UA29 TRB UM986 ALR UG26 ZEM/N0466F360 UG26 REQIN DCT ORKUM DCT ELSAG DCT ALG DCT TINTO L5 VALMA |
| Aircraft | B77W/H-SDE1E2E3FGHIJ2J3J4J5M1RWXY/LB1D1 |
Departure
| Time | 2026-05-07 18:30 |
|---|---|
| Airport | São Paulo/Guarulhos–Governor André Franco Montoro International Airport (SBGR) |
Arrival
| Time | 2026-05-08 05:13 |
|---|---|
| Airport | Rome–Fiumicino Leonardo da Vinci International Airport (LIRF) |
| Time | Latitude | Longitude | Altitude | Speed | Heading |
|---|---|---|---|---|---|
| 2026-05-07 17:26 | -23.42669 | -46.47283 | 2448 ft | 0 kts | 252° |
| 2026-05-07 18:10 | -23.42668 | -46.47283 | 2448 ft | 1 kts | 252° |
| 2026-05-07 18:10 | -23.42664 | -46.47268 | 2448 ft | 2 kts | 252° |
| 2026-05-07 18:10 | -23.42660 | -46.47253 | 2448 ft | 2 kts | 252° |
| 2026-05-07 18:11 | -23.42657 | -46.47242 | 2448 ft | 1 kts | 252° |
| 2026-05-07 18:11 | -23.42654 | -46.47232 | 2448 ft | 2 kts | 245° |
| 2026-05-07 18:11 | -23.42642 | -46.47215 | 2448 ft | 2 kts | 220° |
| 2026-05-07 18:11 | -23.42630 | -46.47205 | 2448 ft | 2 kts | 205° |
| 2026-05-07 18:12 | -23.42616 | -46.47200 | 2448 ft | 2 kts | 190° |
| 2026-05-07 18:12 | -23.42601 | -46.47198 | 2448 ft | 2 kts | 174° |
| 2026-05-07 18:12 | -23.42591 | -46.47200 | 2448 ft | 0 kts | 163° |
| 2026-05-07 18:12 | -23.42587 | -46.47201 | 2448 ft | 0 kts | 163° |
| 2026-05-07 18:17 | -23.42588 | -46.47201 | 2448 ft | 0 kts | 163° |
| 2026-05-07 18:17 | -23.42593 | -46.47200 | 2448 ft | 1 kts | 162° |
| 2026-05-07 18:18 | -23.42607 | -46.47195 | 2448 ft | 2 kts | 162° |
| 2026-05-07 18:18 | -23.42629 | -46.47187 | 2448 ft | 3 kts | 162° |
| 2026-05-07 18:18 | -23.42660 | -46.47177 | 2448 ft | 5 kts | 163° |
| 2026-05-07 18:18 | -23.42696 | -46.47166 | 2449 ft | 5 kts | 164° |
| 2026-05-07 18:19 | -23.42729 | -46.47156 | 2449 ft | 4 kts | 163° |
| 2026-05-07 18:19 | -23.42759 | -46.47146 | 2450 ft | 4 kts | 161° |
| 2026-05-07 18:19 | -23.42787 | -46.47136 | 2450 ft | 4 kts | 163° |
| 2026-05-07 18:19 | -23.42815 | -46.47128 | 2451 ft | 3 kts | 167° |
| 2026-05-07 18:20 | -23.42840 | -46.47121 | 2451 ft | 3 kts | 165° |
| 2026-05-07 18:20 | -23.42857 | -46.47116 | 2452 ft | 1 kts | 164° |
| 2026-05-07 18:20 | -23.42862 | -46.47114 | 2452 ft | 0 kts | 163° |
| 2026-05-07 18:20 | -23.42873 | -46.47111 | 2453 ft | 2 kts | 163° |
| 2026-05-07 18:21 | -23.42900 | -46.47111 | 2453 ft | 5 kts | 196° |
| 2026-05-07 18:21 | -23.42935 | -46.47154 | 2453 ft | 10 kts | 250° |
| 2026-05-07 18:21 | -23.42959 | -46.47243 | 2453 ft | 14 kts | 253° |
| 2026-05-07 18:21 | -23.42989 | -46.47357 | 2454 ft | 16 kts | 254° |
| 2026-05-07 18:22 | -23.43018 | -46.47464 | 2454 ft | 13 kts | 252° |
| 2026-05-07 18:22 | -23.43036 | -46.47525 | 2454 ft | 12 kts | 252° |
| 2026-05-07 18:22 | -23.43064 | -46.47626 | 2454 ft | 9 kts | 253° |
| 2026-05-07 18:22 | -23.43080 | -46.47684 | 2455 ft | 7 kts | 253° |
| 2026-05-07 18:23 | -23.43092 | -46.47730 | 2455 ft | 5 kts | 253° |
| 2026-05-07 18:23 | -23.43103 | -46.47772 | 2454 ft | 6 kts | 253° |
| 2026-05-07 18:23 | -23.43116 | -46.47819 | 2453 ft | 6 kts | 253° |
| 2026-05-07 18:23 | -23.43130 | -46.47870 | 2453 ft | 6 kts | 253° |
| 2026-05-07 18:24 | -23.43142 | -46.47915 | 2453 ft | 5 kts | 253° |
| 2026-05-07 18:24 | -23.43154 | -46.47956 | 2453 ft | 5 kts | 253° |
| 2026-05-07 18:24 | -23.43164 | -46.47994 | 2453 ft | 5 kts | 253° |
| 2026-05-07 18:24 | -23.43174 | -46.48028 | 2453 ft | 4 kts | 253° |
| 2026-05-07 18:25 | -23.43181 | -46.48053 | 2453 ft | 2 kts | 253° |
| 2026-05-07 18:25 | -23.43185 | -46.48071 | 2453 ft | 2 kts | 253° |
| 2026-05-07 18:25 | -23.43191 | -46.48090 | 2454 ft | 3 kts | 252° |
| 2026-05-07 18:25 | -23.43198 | -46.48114 | 2454 ft | 3 kts | 252° |
| 2026-05-07 18:26 | -23.43207 | -46.48146 | 2454 ft | 6 kts | 253° |
| 2026-05-07 18:26 | -23.43222 | -46.48203 | 2454 ft | 9 kts | 255° |
| 2026-05-07 18:26 | -23.43240 | -46.48277 | 2454 ft | 10 kts | 255° |
| 2026-05-07 18:26 | -23.43271 | -46.48338 | 2454 ft | 8 kts | 219° |
| 2026-05-07 18:27 | -23.43318 | -46.48355 | 2455 ft | 5 kts | 178° |
| 2026-05-07 18:27 | -23.43350 | -46.48348 | 2455 ft | 3 kts | 164° |
| 2026-05-07 18:27 | -23.43369 | -46.48342 | 2456 ft | 2 kts | 163° |
| 2026-05-07 18:27 | -23.43384 | -46.48337 | 2456 ft | 4 kts | 160° |
| 2026-05-07 18:28 | -23.43413 | -46.48311 | 2457 ft | 3 kts | 114° |
| 2026-05-07 18:28 | -23.43414 | -46.48289 | 2458 ft | 2 kts | 80° |
| 2026-05-07 18:28 | -23.43407 | -46.48266 | 2458 ft | 4 kts | 71° |
| 2026-05-07 18:28 | -23.43389 | -46.48203 | 2457 ft | 23 kts | 73° |
| 2026-05-07 18:29 | -23.43277 | -46.47787 | 2458 ft | 90 kts | 73° |
| 2026-05-07 18:29 | -23.43044 | -46.46924 | 2458 ft | 150 kts | 73° |
| 2026-05-07 18:29 | -23.42693 | -46.45625 | 2488 ft | 200 kts | 72° |
| 2026-05-07 18:29 | -23.42271 | -46.44104 | 2873 ft | 217 kts | 68° |
| 2026-05-07 18:30 | -23.41787 | -46.42553 | 3707 ft | 220 kts | 68° |
| 2026-05-07 18:30 | -23.41315 | -46.40962 | 4165 ft | 229 kts | 69° |
| 2026-05-07 18:30 | -23.40815 | -46.39227 | 4292 ft | 254 kts | 69° |
| 2026-05-07 18:30 | -23.40295 | -46.37317 | 4606 ft | 271 kts | 76° |
| 2026-05-07 18:31 | -23.40346 | -46.35259 | 5224 ft | 280 kts | 101° |
| 2026-05-07 18:31 | -23.40914 | -46.33252 | 5984 ft | 281 kts | 105° |
| 2026-05-07 18:31 | -23.41584 | -46.31218 | 6603 ft | 287 kts | 106° |
| 2026-05-07 18:31 | -23.42263 | -46.29170 | 7277 ft | 289 kts | 106° |
| 2026-05-07 18:32 | -23.42930 | -46.27140 | 7929 ft | 291 kts | 106° |
| 2026-05-07 18:32 | -23.43609 | -46.25057 | 8544 ft | 294 kts | 103° |
| 2026-05-07 18:32 | -23.44101 | -46.22895 | 9147 ft | 295 kts | 97° |
| 2026-05-07 18:32 | -23.44482 | -46.20691 | 9805 ft | 297 kts | 97° |
| 2026-05-07 18:33 | -23.44856 | -46.18486 | 10403 ft | 301 kts | 97° |
| 2026-05-07 18:33 | -23.45247 | -46.16201 | 10723 ft | 316 kts | 97° |
| 2026-05-07 18:33 | -23.45667 | -46.13767 | 11015 ft | 332 kts | 97° |
| 2026-05-07 18:33 | -23.46104 | -46.11242 | 11323 ft | 348 kts | 98° |
| 2026-05-07 18:34 | -23.46563 | -46.08598 | 11661 ft | 363 kts | 98° |
| 2026-05-07 18:34 | -23.47032 | -46.05885 | 12015 ft | 376 kts | 98° |
| 2026-05-07 18:34 | -23.47526 | -46.03033 | 12547 ft | 384 kts | 98° |
| 2026-05-07 18:34 | -23.48018 | -46.00189 | 12980 ft | 387 kts | 98° |
| 2026-05-07 18:35 | -23.48518 | -45.97295 | 13048 ft | 387 kts | 98° |
| 2026-05-07 18:35 | -23.48848 | -45.94416 | 13049 ft | 383 kts | 89° |
| 2026-05-07 18:35 | -23.48673 | -45.91541 | 13086 ft | 389 kts | 78° |
| 2026-05-07 18:35 | -23.48055 | -45.88658 | 13729 ft | 391 kts | 74° |
| 2026-05-07 18:36 | -23.47372 | -45.85807 | 14612 ft | 387 kts | 74° |
| 2026-05-07 18:36 | -23.46696 | -45.83009 | 15271 ft | 389 kts | 74° |
| 2026-05-07 18:36 | -23.45995 | -45.80125 | 15788 ft | 395 kts | 74° |
| 2026-05-07 18:36 | -23.45287 | -45.77223 | 16347 ft | 400 kts | 74° |
| 2026-05-07 18:37 | -23.44580 | -45.74327 | 16989 ft | 401 kts | 74° |
| 2026-05-07 18:37 | -23.43859 | -45.71386 | 17609 ft | 404 kts | 74° |
| 2026-05-07 18:37 | -23.43127 | -45.68400 | 18091 ft | 410 kts | 74° |
| 2026-05-07 18:37 | -23.42385 | -45.65380 | 18524 ft | 417 kts | 74° |
| 2026-05-07 18:38 | -23.41634 | -45.62329 | 18981 ft | 423 kts | 74° |
| 2026-05-07 18:38 | -23.40867 | -45.59213 | 19474 ft | 428 kts | 75° |
| 2026-05-07 18:38 | -23.40092 | -45.56070 | 19939 ft | 434 kts | 75° |
| 2026-05-07 18:38 | -23.39309 | -45.52897 | 20375 ft | 440 kts | 75° |
| 2026-05-07 18:39 | -23.38528 | -45.49676 | 20840 ft | 445 kts | 76° |
| 2026-05-07 18:39 | -23.37826 | -45.46382 | 21343 ft | 449 kts | 77° |
| 2026-05-07 18:39 | -23.37124 | -45.43036 | 21778 ft | 455 kts | 77° |
| 2026-05-07 18:39 | -23.36419 | -45.39693 | 22196 ft | 460 kts | 77° |
| 2026-05-07 18:40 | -23.35693 | -45.36266 | 22641 ft | 465 kts | 77° |
| 2026-05-07 18:40 | -23.34963 | -45.32834 | 23132 ft | 468 kts | 77° |
| 2026-05-07 18:40 | -23.34225 | -45.29374 | 23622 ft | 471 kts | 77° |
| 2026-05-07 18:40 | -23.33487 | -45.25921 | 24050 ft | 475 kts | 77° |
| 2026-05-07 18:41 | -23.32731 | -45.22391 | 24510 ft | 479 kts | 77° |
| 2026-05-07 18:41 | -23.31975 | -45.18868 | 25023 ft | 481 kts | 77° |
| 2026-05-07 18:41 | -23.31221 | -45.15357 | 25485 ft | 484 kts | 77° |
| 2026-05-07 18:41 | -23.30451 | -45.11782 | 25877 ft | 488 kts | 77° |
| 2026-05-07 18:42 | -23.29677 | -45.08191 | 26338 ft | 491 kts | 78° |
| 2026-05-07 18:42 | -23.28894 | -45.04561 | 26824 ft | 493 kts | 78° |
| 2026-05-07 18:42 | -23.28114 | -45.00954 | 27252 ft | 496 kts | 78° |
| 2026-05-07 18:42 | -23.27317 | -44.97269 | 27673 ft | 499 kts | 78° |
| 2026-05-07 18:43 | -23.26530 | -44.93636 | 28128 ft | 501 kts | 78° |
| 2026-05-07 18:43 | -23.25727 | -44.89933 | 28493 ft | 505 kts | 78° |
| 2026-05-07 18:43 | -23.24918 | -44.86210 | 28855 ft | 509 kts | 78° |
| 2026-05-07 18:43 | -23.24101 | -44.82450 | 29275 ft | 512 kts | 78° |
| 2026-05-07 18:44 | -23.23281 | -44.78689 | 29820 ft | 511 kts | 78° |
| 2026-05-07 18:44 | -23.22466 | -44.74952 | 30363 ft | 510 kts | 78° |
| 2026-05-07 18:44 | -23.21655 | -44.71234 | 30872 ft | 510 kts | 79° |
| 2026-05-07 18:44 | -23.20834 | -44.67477 | 30995 ft | 514 kts | 78° |
| 2026-05-07 18:45 | -23.20000 | -44.63668 | 30996 ft | 513 kts | 79° |
| 2026-05-07 18:45 | -23.18348 | -44.56136 | 30980 ft | 509 kts | 79° |
| 2026-05-07 18:46 | -23.16699 | -44.48632 | 30959 ft | 513 kts | 79° |
| 2026-05-07 18:46 | -23.15039 | -44.41098 | 30951 ft | 509 kts | 79° |
| 2026-05-07 18:47 | -23.13387 | -44.33612 | 30945 ft | 515 kts | 78° |
| 2026-05-07 18:47 | -23.11697 | -44.25980 | 30930 ft | 511 kts | 79° |
| 2026-05-07 18:48 | -23.10025 | -44.18444 | 30931 ft | 514 kts | 79° |
| 2026-05-07 18:48 | -23.08354 | -44.10931 | 30936 ft | 513 kts | 79° |
| 2026-05-07 18:49 | -23.06678 | -44.03415 | 30937 ft | 511 kts | 79° |
| 2026-05-07 18:49 | -23.05007 | -43.95940 | 30933 ft | 510 kts | 79° |
| 2026-05-07 18:50 | -23.03337 | -43.88484 | 30936 ft | 512 kts | 79° |
| 2026-05-07 18:50 | -23.01659 | -43.81007 | 30941 ft | 512 kts | 79° |
| 2026-05-07 18:51 | -22.99965 | -43.73479 | 30943 ft | 513 kts | 79° |
| 2026-05-07 18:51 | -22.97572 | -43.66192 | 30951 ft | 516 kts | 69° |
| 2026-05-07 18:52 | -22.94771 | -43.59069 | 30952 ft | 516 kts | 70° |
| 2026-05-07 18:52 | -22.91942 | -43.51891 | 30957 ft | 517 kts | 70° |
| 2026-05-07 18:53 | -22.89121 | -43.44741 | 30950 ft | 514 kts | 70° |
| 2026-05-07 18:53 | -22.86325 | -43.37664 | 30954 ft | 515 kts | 70° |
| 2026-05-07 18:54 | -22.83497 | -43.30488 | 30937 ft | 516 kts | 71° |
| 2026-05-07 18:54 | -22.81861 | -43.23038 | 30948 ft | 507 kts | 89° |
| 2026-05-07 18:55 | -22.81724 | -43.15495 | 30953 ft | 503 kts | 94° |
| 2026-05-07 18:55 | -22.81707 | -43.07881 | 30964 ft | 503 kts | 94° |
| 2026-05-07 18:56 | -22.81692 | -43.00356 | 30959 ft | 502 kts | 94° |
| 2026-05-07 18:56 | -22.81675 | -42.92786 | 30963 ft | 503 kts | 94° |
| 2026-05-07 18:57 | -22.81655 | -42.85197 | 30968 ft | 503 kts | 94° |
| 2026-05-07 18:57 | -22.81633 | -42.77683 | 30975 ft | 502 kts | 94° |
| 2026-05-07 18:58 | -22.81585 | -42.70100 | 30976 ft | 504 kts | 91° |
| 2026-05-07 18:58 | -22.80212 | -42.62661 | 30980 ft | 514 kts | 73° |
| 2026-05-07 18:59 | -22.76852 | -42.55743 | 30994 ft | 521 kts | 60° |
| 2026-05-07 18:59 | -22.72924 | -42.49212 | 30995 ft | 519 kts | 60° |
| 2026-05-07 19:00 | -22.68983 | -42.42667 | 30996 ft | 521 kts | 60° |
| 2026-05-07 19:00 | -22.65024 | -42.36091 | 31000 ft | 519 kts | 60° |
| 2026-05-07 19:01 | -22.61077 | -42.29534 | 30994 ft | 521 kts | 60° |
| 2026-05-07 19:01 | -22.56519 | -42.23476 | 30990 ft | 525 kts | 44° |
| 2026-05-07 19:02 | -22.50913 | -42.18323 | 30997 ft | 527 kts | 41° |
| 2026-05-07 19:02 | -22.45299 | -42.13271 | 31015 ft | 528 kts | 41° |
| 2026-05-07 19:03 | -22.39661 | -42.08202 | 31031 ft | 527 kts | 41° |
| 2026-05-07 19:03 | -22.33984 | -42.03104 | 31033 ft | 526 kts | 41° |
| 2026-05-07 19:04 | -22.28368 | -41.98064 | 31028 ft | 527 kts | 41° |
| 2026-05-07 19:04 | -22.22724 | -41.93006 | 31032 ft | 527 kts | 41° |
| 2026-05-07 19:05 | -22.17079 | -41.87952 | 31035 ft | 526 kts | 42° |
| 2026-05-07 19:05 | -22.11451 | -41.82918 | 31043 ft | 524 kts | 42° |
| 2026-05-07 19:06 | -22.05778 | -41.77846 | 31041 ft | 527 kts | 41° |
| 2026-05-07 19:06 | -21.97331 | -41.70307 | 31047 ft | 526 kts | 41° |
| 2026-05-07 19:07 | -21.91673 | -41.65264 | 31059 ft | 526 kts | 42° |
| 2026-05-07 19:07 | -21.86031 | -41.60243 | 31050 ft | 524 kts | 42° |
| 2026-05-07 19:08 | -21.80413 | -41.55249 | 31048 ft | 526 kts | 42° |
| 2026-05-07 19:08 | -21.74783 | -41.50250 | 31041 ft | 524 kts | 42° |
| 2026-05-07 19:09 | -21.69159 | -41.45260 | 31035 ft | 524 kts | 42° |
| 2026-05-07 19:09 | -21.63541 | -41.40281 | 31032 ft | 524 kts | 42° |
| 2026-05-07 19:10 | -21.57904 | -41.35286 | 31032 ft | 523 kts | 42° |
| 2026-05-07 19:10 | -21.52315 | -41.30339 | 31027 ft | 524 kts | 42° |
| 2026-05-07 19:11 | -21.46670 | -41.25348 | 31025 ft | 523 kts | 42° |
| 2026-05-07 19:11 | -21.41033 | -41.20369 | 31026 ft | 523 kts | 42° |
| 2026-05-07 19:12 | -21.35450 | -41.15441 | 31028 ft | 522 kts | 42° |
| 2026-05-07 19:12 | -21.29827 | -41.10484 | 31025 ft | 523 kts | 42° |
| 2026-05-07 19:13 | -21.24186 | -41.05520 | 31023 ft | 522 kts | 42° |
| 2026-05-07 19:13 | -21.18568 | -41.00583 | 31026 ft | 522 kts | 42° |
| 2026-05-07 19:14 | -21.12927 | -40.95629 | 31023 ft | 522 kts | 42° |
| 2026-05-07 19:14 | -21.07277 | -40.90673 | 31026 ft | 522 kts | 42° |
| 2026-05-07 19:15 | -21.01653 | -40.85744 | 31027 ft | 521 kts | 42° |
| 2026-05-07 19:15 | -20.96054 | -40.80842 | 31032 ft | 521 kts | 42° |
| 2026-05-07 19:16 | -20.90442 | -40.75934 | 31048 ft | 519 kts | 42° |
| 2026-05-07 19:16 | -20.84824 | -40.71025 | 31042 ft | 520 kts | 42° |
| 2026-05-07 19:17 | -20.79106 | -40.66284 | 31051 ft | 522 kts | 37° |
| 2026-05-07 19:17 | -20.73081 | -40.61972 | 31048 ft | 522 kts | 36° |
| 2026-05-07 19:18 | -20.67013 | -40.57648 | 31054 ft | 521 kts | 36° |
| 2026-05-07 19:18 | -20.61007 | -40.53369 | 31054 ft | 521 kts | 36° |
| 2026-05-07 19:19 | -20.54980 | -40.49078 | 31053 ft | 520 kts | 36° |
| 2026-05-07 19:19 | -20.48923 | -40.44767 | 31056 ft | 520 kts | 36° |
| 2026-05-07 19:20 | -20.42918 | -40.40497 | 31057 ft | 519 kts | 36° |
| 2026-05-07 19:20 | -20.36920 | -40.36236 | 31058 ft | 519 kts | 36° |
| 2026-05-07 19:21 | -20.30874 | -40.31945 | 31057 ft | 519 kts | 36° |
| 2026-05-07 19:21 | -20.24869 | -40.27689 | 31054 ft | 518 kts | 36° |
| 2026-05-07 19:22 | -20.18821 | -40.23471 | 31048 ft | 519 kts | 36° |
| 2026-05-07 19:22 | -20.12762 | -40.19253 | 31050 ft | 518 kts | 36° |
| 2026-05-07 19:23 | -20.06729 | -40.15056 | 31048 ft | 517 kts | 36° |
| 2026-05-07 19:23 | -20.00715 | -40.10875 | 31051 ft | 517 kts | 36° |
| 2026-05-07 19:24 | -19.94692 | -40.06690 | 31042 ft | 516 kts | 36° |
| 2026-05-07 19:24 | -19.88677 | -40.02515 | 31041 ft | 517 kts | 36° |
| 2026-05-07 19:25 | -19.82639 | -39.98327 | 31032 ft | 517 kts | 36° |
| 2026-05-07 19:25 | -19.76628 | -39.94162 | 31032 ft | 516 kts | 36° |
| 2026-05-07 19:26 | -19.70615 | -39.89999 | 31033 ft | 515 kts | 36° |
| 2026-05-07 19:26 | -19.64611 | -39.85813 | 31032 ft | 515 kts | 36° |
| 2026-05-07 19:27 | -19.58634 | -39.81622 | 31034 ft | 513 kts | 36° |
| 2026-05-07 19:27 | -19.52688 | -39.77457 | 31036 ft | 512 kts | 36° |
| 2026-05-07 19:28 | -19.46748 | -39.73301 | 31034 ft | 512 kts | 36° |
| 2026-05-07 19:28 | -19.40776 | -39.69128 | 31034 ft | 511 kts | 36° |
| 2026-05-07 19:29 | -19.34864 | -39.65001 | 31042 ft | 510 kts | 36° |
| 2026-05-07 19:29 | -19.28927 | -39.60860 | 31039 ft | 510 kts | 36° |
| 2026-05-07 19:30 | -19.22999 | -39.56729 | 31038 ft | 510 kts | 36° |
| 2026-05-07 19:30 | -19.17045 | -39.52583 | 31039 ft | 509 kts | 35° |
| 2026-05-07 19:31 | -19.11139 | -39.48474 | 31040 ft | 509 kts | 35° |
| 2026-05-07 19:31 | -19.05242 | -39.44377 | 31035 ft | 508 kts | 35° |
| 2026-05-07 19:32 | -18.99325 | -39.40267 | 31037 ft | 508 kts | 35° |
| 2026-05-07 19:32 | -18.93429 | -39.36177 | 31039 ft | 506 kts | 35° |
| 2026-05-07 19:33 | -18.87510 | -39.32074 | 31039 ft | 506 kts | 34° |
| 2026-05-07 19:33 | -18.81663 | -39.28023 | 31042 ft | 506 kts | 34° |
| 2026-05-07 19:34 | -18.75756 | -39.23936 | 31039 ft | 504 kts | 34° |
| 2026-05-07 19:34 | -18.69909 | -39.19893 | 31036 ft | 503 kts | 34° |
| 2026-05-07 19:35 | -18.64033 | -39.15833 | 31032 ft | 503 kts | 34° |
| 2026-05-07 19:35 | -18.58181 | -39.11794 | 31039 ft | 502 kts | 34° |
| 2026-05-07 19:36 | -18.52362 | -39.07780 | 31035 ft | 501 kts | 34° |
| 2026-05-07 19:36 | -18.46545 | -39.03772 | 31035 ft | 501 kts | 34° |
| 2026-05-07 19:37 | -18.40719 | -38.99745 | 31026 ft | 498 kts | 34° |
| 2026-05-07 19:37 | -18.34967 | -38.95697 | 31029 ft | 499 kts | 35° |
| 2026-05-07 19:38 | -18.29156 | -38.91611 | 31023 ft | 498 kts | 35° |
| 2026-05-07 19:38 | -18.23404 | -38.87573 | 31026 ft | 499 kts | 34° |
| 2026-05-07 19:39 | -18.17605 | -38.83506 | 31027 ft | 500 kts | 35° |
| 2026-05-07 19:39 | -18.12793 | -38.80134 | 31021 ft | 500 kts | 34° |
| 2026-05-07 19:40 | -18.06054 | -38.75417 | 31018 ft | 498 kts | 34° |
| 2026-05-07 19:40 | -18.00280 | -38.71379 | 31016 ft | 499 kts | 34° |
| 2026-05-07 19:41 | -17.94506 | -38.67344 | 31013 ft | 498 kts | 34° |
| 2026-05-07 19:41 | -17.88743 | -38.63320 | 31014 ft | 497 kts | 34° |
| 2026-05-07 19:42 | -17.82976 | -38.59296 | 31010 ft | 498 kts | 34° |
| 2026-05-07 19:42 | -17.77205 | -38.55273 | 31012 ft | 499 kts | 34° |
| 2026-05-07 19:43 | -17.71400 | -38.51229 | 31012 ft | 497 kts | 34° |
| 2026-05-07 19:43 | -17.65629 | -38.47212 | 31014 ft | 497 kts | 34° |
| 2026-05-07 19:44 | -17.59861 | -38.43201 | 31020 ft | 497 kts | 34° |
| 2026-05-07 19:44 | -17.54086 | -38.39187 | 31021 ft | 497 kts | 34° |
| 2026-05-07 19:45 | -17.48307 | -38.35175 | 31020 ft | 498 kts | 34° |
| 2026-05-07 19:45 | -17.42546 | -38.31177 | 31019 ft | 497 kts | 34° |
| 2026-05-07 19:46 | -17.36784 | -38.27182 | 31021 ft | 497 kts | 34° |
| 2026-05-07 19:46 | -17.30987 | -38.23166 | 31019 ft | 496 kts | 34° |
| 2026-05-07 19:47 | -17.25211 | -38.19168 | 31020 ft | 498 kts | 34° |
| 2026-05-07 19:47 | -17.19465 | -38.15192 | 31022 ft | 497 kts | 34° |
| 2026-05-07 19:48 | -17.13675 | -38.11190 | 31016 ft | 496 kts | 34° |
| 2026-05-07 19:48 | -17.07910 | -38.07208 | 31015 ft | 495 kts | 34° |
| 2026-05-07 19:49 | -17.02146 | -38.03230 | 31016 ft | 495 kts | 34° |
| 2026-05-07 19:49 | -16.96410 | -37.99274 | 31017 ft | 496 kts | 34° |
| 2026-05-07 19:50 | -16.90660 | -37.95311 | 31015 ft | 496 kts | 34° |
| 2026-05-07 19:50 | -16.84875 | -37.91328 | 31012 ft | 496 kts | 34° |
| 2026-05-07 19:51 | -16.79127 | -37.87373 | 31012 ft | 496 kts | 34° |
| 2026-05-07 19:51 | -16.73346 | -37.83398 | 31012 ft | 496 kts | 34° |
| 2026-05-07 19:52 | -16.67615 | -37.79459 | 31012 ft | 494 kts | 34° |
| 2026-05-07 19:52 | -16.61859 | -37.75508 | 31011 ft | 494 kts | 34° |
| 2026-05-07 19:53 | -16.56094 | -37.71552 | 31008 ft | 496 kts | 34° |
| 2026-05-07 19:53 | -16.50324 | -37.67596 | 31006 ft | 495 kts | 33° |
| 2026-05-07 19:54 | -16.44564 | -37.63649 | 31002 ft | 494 kts | 33° |
| 2026-05-07 19:54 | -16.38804 | -37.59707 | 31002 ft | 494 kts | 33° |
| 2026-05-07 19:55 | -16.33079 | -37.55790 | 31001 ft | 493 kts | 33° |
| 2026-05-07 19:55 | -16.27317 | -37.51850 | 31003 ft | 494 kts | 33° |
| 2026-05-07 19:56 | -16.21583 | -37.47934 | 31000 ft | 493 kts | 33° |
| 2026-05-07 19:56 | -16.15848 | -37.44018 | 30998 ft | 493 kts | 33° |
| 2026-05-07 19:57 | -16.10106 | -37.40091 | 30996 ft | 493 kts | 33° |
| 2026-05-07 19:57 | -16.04398 | -37.36145 | 30997 ft | 493 kts | 33° |
| 2026-05-07 19:58 | -15.98666 | -37.32186 | 30991 ft | 492 kts | 33° |
| 2026-05-07 19:58 | -15.92960 | -37.28249 | 30991 ft | 492 kts | 33° |
| 2026-05-07 19:59 | -15.87268 | -37.24326 | 30990 ft | 492 kts | 33° |
| 2026-05-07 19:59 | -15.81557 | -37.20392 | 30991 ft | 492 kts | 33° |
| 2026-05-07 20:00 | -15.75820 | -37.16443 | 30991 ft | 492 kts | 33° |
| 2026-05-07 20:00 | -15.70111 | -37.12516 | 30992 ft | 493 kts | 33° |
| 2026-05-07 20:01 | -15.64396 | -37.08588 | 30991 ft | 493 kts | 33° |
| 2026-05-07 20:01 | -15.58673 | -37.04657 | 30991 ft | 491 kts | 33° |
| 2026-05-07 20:02 | -15.52979 | -37.00748 | 30992 ft | 492 kts | 33° |
| 2026-05-07 20:02 | -15.47251 | -36.96820 | 30992 ft | 492 kts | 33° |
| 2026-05-07 20:03 | -15.41575 | -36.92929 | 30991 ft | 492 kts | 33° |
| 2026-05-07 20:03 | -15.35829 | -36.88993 | 30992 ft | 492 kts | 33° |
| 2026-05-07 20:04 | -15.30133 | -36.85095 | 30992 ft | 491 kts | 33° |
| 2026-05-07 20:04 | -15.24427 | -36.81191 | 30990 ft | 491 kts | 32° |
| 2026-05-07 20:05 | -15.18711 | -36.77283 | 30994 ft | 491 kts | 32° |
| 2026-05-07 20:05 | -15.13008 | -36.73386 | 30992 ft | 490 kts | 32° |
| 2026-05-07 20:06 | -15.07314 | -36.69500 | 30994 ft | 491 kts | 32° |
| 2026-05-07 20:06 | -15.01601 | -36.65601 | 30992 ft | 491 kts | 32° |
| 2026-05-07 20:07 | -14.95906 | -36.61718 | 30993 ft | 490 kts | 32° |
| 2026-05-07 20:07 | -14.90208 | -36.57835 | 30990 ft | 490 kts | 32° |
| 2026-05-07 20:08 | -14.84532 | -36.53970 | 30990 ft | 489 kts | 32° |
| 2026-05-07 20:08 | -14.78813 | -36.50078 | 30987 ft | 489 kts | 32° |
| 2026-05-07 20:09 | -14.73134 | -36.46216 | 30985 ft | 489 kts | 32° |
| 2026-05-07 20:10 | -14.64582 | -36.40405 | 30984 ft | 489 kts | 32° |
| 2026-05-07 20:10 | -14.58911 | -36.36554 | 30982 ft | 488 kts | 31° |
| 2026-05-07 20:11 | -14.53238 | -36.32704 | 30979 ft | 487 kts | 31° |
| 2026-05-07 20:11 | -14.47545 | -36.28843 | 30978 ft | 488 kts | 31° |
| 2026-05-07 20:12 | -14.41889 | -36.25010 | 30983 ft | 487 kts | 31° |
| 2026-05-07 20:12 | -14.36218 | -36.21168 | 30976 ft | 486 kts | 31° |
| 2026-05-07 20:13 | -14.30582 | -36.17354 | 30975 ft | 487 kts | 31° |
| 2026-05-07 20:13 | -14.24886 | -36.13500 | 30974 ft | 486 kts | 31° |
| 2026-05-07 20:14 | -14.19233 | -36.09678 | 30976 ft | 485 kts | 31° |
| 2026-05-07 20:14 | -14.13606 | -36.05876 | 30978 ft | 484 kts | 30° |
| 2026-05-07 20:15 | -14.07953 | -36.02058 | 30977 ft | 484 kts | 30° |
| 2026-05-07 20:15 | -14.02333 | -35.98266 | 30973 ft | 483 kts | 30° |
| 2026-05-07 20:16 | -13.96665 | -35.94443 | 30968 ft | 483 kts | 30° |
| 2026-05-07 20:16 | -13.91048 | -35.90657 | 30965 ft | 484 kts | 30° |
| 2026-05-07 20:17 | -13.85406 | -35.86856 | 30976 ft | 484 kts | 30° |
| 2026-05-07 20:17 | -13.79800 | -35.83082 | 30973 ft | 483 kts | 30° |
| 2026-05-07 20:18 | -13.74152 | -35.79282 | 30974 ft | 485 kts | 30° |
| 2026-05-07 20:18 | -13.68506 | -35.75484 | 30972 ft | 484 kts | 30° |
| 2026-05-07 20:19 | -13.62850 | -35.71683 | 30978 ft | 483 kts | 30° |
| 2026-05-07 20:19 | -13.57226 | -35.67905 | 30982 ft | 483 kts | 30° |
| 2026-05-07 20:20 | -13.51579 | -35.64114 | 30984 ft | 483 kts | 30° |
| 2026-05-07 20:20 | -13.45964 | -35.60347 | 30981 ft | 483 kts | 30° |
| 2026-05-07 20:21 | -13.40298 | -35.56548 | 30982 ft | 484 kts | 30° |
| 2026-05-07 20:21 | -13.34659 | -35.52768 | 30977 ft | 484 kts | 29° |
| 2026-05-07 20:22 | -13.29456 | -35.49283 | 30976 ft | 484 kts | 29° |
| 2026-05-07 20:22 | -13.23791 | -35.45490 | 30971 ft | 484 kts | 29° |
| 2026-05-07 20:23 | -13.18475 | -35.41931 | 30970 ft | 484 kts | 29° |
| 2026-05-07 20:23 | -13.12857 | -35.38174 | 30968 ft | 482 kts | 29° |
| 2026-05-07 20:24 | -13.07470 | -35.34573 | 30967 ft | 482 kts | 29° |
| 2026-05-07 20:24 | -13.01996 | -35.30916 | 30964 ft | 483 kts | 29° |
| 2026-05-07 20:25 | -12.96593 | -35.27308 | 30961 ft | 483 kts | 28° |
| 2026-05-07 20:25 | -12.91070 | -35.23622 | 30959 ft | 482 kts | 28° |
| 2026-05-07 20:26 | -12.85467 | -35.19884 | 30969 ft | 483 kts | 28° |
| 2026-05-07 20:26 | -12.81011 | -35.16914 | 30968 ft | 482 kts | 28° |
| 2026-05-07 20:27 | -12.75815 | -35.13451 | 30963 ft | 481 kts | 28° |
| 2026-05-07 20:27 | -12.70221 | -35.09725 | 30962 ft | 483 kts | 28° |
| 2026-05-07 20:28 | -12.64597 | -35.05980 | 30959 ft | 481 kts | 28° |
| 2026-05-07 20:28 | -12.58978 | -35.02242 | 30961 ft | 481 kts | 28° |
| 2026-05-07 20:29 | -12.52708 | -34.98072 | 30962 ft | 479 kts | 28° |
| 2026-05-07 20:29 | -12.48031 | -34.94964 | 30963 ft | 481 kts | 28° |
| 2026-05-07 20:30 | -12.42425 | -34.91240 | 30967 ft | 479 kts | 27° |
| 2026-05-07 20:30 | -12.36814 | -34.87514 | 30971 ft | 479 kts | 28° |
| 2026-05-07 20:31 | -12.31650 | -34.84087 | 30966 ft | 480 kts | 27° |
| 2026-05-07 20:31 | -12.26074 | -34.80388 | 30955 ft | 478 kts | 27° |
| 2026-05-07 20:32 | -12.20486 | -34.76683 | 30960 ft | 478 kts | 27° |
| 2026-05-07 20:32 | -12.14896 | -34.72979 | 30954 ft | 478 kts | 27° |
| 2026-05-07 20:33 | -12.09298 | -34.69271 | 30969 ft | 479 kts | 27° |
| 2026-05-07 20:33 | -12.03730 | -34.65586 | 30961 ft | 475 kts | 27° |
| 2026-05-07 20:34 | -11.98156 | -34.61898 | 30977 ft | 479 kts | 27° |
| 2026-05-07 20:34 | -11.92587 | -34.58216 | 30964 ft | 477 kts | 27° |
| 2026-05-07 20:35 | -11.86048 | -34.53892 | 30975 ft | 477 kts | 27° |
| 2026-05-07 20:35 | -11.81405 | -34.50827 | 30979 ft | 478 kts | 27° |
| 2026-05-07 20:36 | -11.75828 | -34.47144 | 30977 ft | 477 kts | 27° |
| 2026-05-07 20:36 | -11.70240 | -34.43455 | 30981 ft | 476 kts | 27° |
| 2026-05-07 20:37 | -11.64691 | -34.39795 | 30977 ft | 478 kts | 27° |
| 2026-05-07 20:37 | -11.59082 | -34.36096 | 30979 ft | 478 kts | 27° |
| 2026-05-07 20:38 | -11.53541 | -34.32444 | 30969 ft | 476 kts | 27° |
| 2026-05-07 20:38 | -11.47950 | -34.28762 | 30964 ft | 477 kts | 27° |
| 2026-05-07 20:39 | -11.42362 | -34.25085 | 30966 ft | 476 kts | 27° |
| 2026-05-07 20:39 | -11.36773 | -34.21408 | 30959 ft | 478 kts | 27° |
| 2026-05-07 20:40 | -11.31213 | -34.17750 | 30961 ft | 476 kts | 27° |
| 2026-05-07 20:40 | -11.25820 | -34.14203 | 30959 ft | 477 kts | 27° |
| 2026-05-07 20:41 | -11.20208 | -34.10513 | 30960 ft | 476 kts | 27° |
| 2026-05-07 20:41 | -11.14643 | -34.06861 | 30964 ft | 479 kts | 27° |
| 2026-05-07 20:42 | -11.09054 | -34.03192 | 30961 ft | 477 kts | 27° |
| 2026-05-07 20:42 | -11.03414 | -33.99493 | 30962 ft | 479 kts | 27° |
| 2026-05-07 20:43 | -10.97845 | -33.95840 | 30965 ft | 478 kts | 27° |
| 2026-05-07 20:43 | -10.92232 | -33.92161 | 30971 ft | 477 kts | 27° |
| 2026-05-07 20:44 | -10.86670 | -33.88516 | 30975 ft | 478 kts | 27° |
| 2026-05-07 20:44 | -10.81068 | -33.84848 | 30974 ft | 478 kts | 27° |
| 2026-05-07 20:45 | -10.75616 | -33.81278 | 30971 ft | 478 kts | 27° |
| 2026-05-07 20:45 | -10.70355 | -33.77830 | 30965 ft | 478 kts | 27° |
| 2026-05-07 20:46 | -10.64780 | -33.74186 | 30966 ft | 477 kts | 27° |
| 2026-05-07 20:46 | -10.59152 | -33.70507 | 30956 ft | 478 kts | 27° |
| 2026-05-07 20:47 | -10.53583 | -33.66869 | 30956 ft | 478 kts | 27° |
| 2026-05-07 20:47 | -10.47969 | -33.63203 | 30955 ft | 480 kts | 27° |
| 2026-05-07 20:48 | -10.42350 | -33.59533 | 30956 ft | 478 kts | 27° |
| 2026-05-07 20:48 | -10.36757 | -33.55883 | 30953 ft | 480 kts | 27° |
| 2026-05-07 20:49 | -10.31117 | -33.52204 | 30952 ft | 479 kts | 27° |
| 2026-05-07 20:49 | -10.25516 | -33.48551 | 30949 ft | 478 kts | 27° |
| 2026-05-07 20:50 | -10.19915 | -33.44901 | 30950 ft | 480 kts | 28° |
| 2026-05-07 20:50 | -10.14304 | -33.41244 | 30952 ft | 478 kts | 28° |
| 2026-05-07 20:51 | -10.08698 | -33.37593 | 30950 ft | 479 kts | 28° |
| 2026-05-07 20:51 | -10.03053 | -33.33919 | 30943 ft | 481 kts | 27° |
| 2026-05-07 20:52 | -9.97429 | -33.30260 | 30947 ft | 482 kts | 27° |
| 2026-05-07 20:52 | -9.91783 | -33.26586 | 30945 ft | 480 kts | 27° |
| 2026-05-07 20:53 | -9.86150 | -33.22924 | 30947 ft | 480 kts | 27° |
| 2026-05-07 20:53 | -9.80521 | -33.19265 | 30948 ft | 480 kts | 27° |
| 2026-05-07 20:54 | -9.74891 | -33.15608 | 30943 ft | 479 kts | 27° |
| 2026-05-07 20:54 | -9.69284 | -33.11966 | 30937 ft | 480 kts | 28° |
| 2026-05-07 20:55 | -9.63629 | -33.08296 | 30932 ft | 479 kts | 28° |
| 2026-05-07 20:55 | -9.58028 | -33.04662 | 30928 ft | 479 kts | 28° |
| 2026-05-07 20:56 | -9.52398 | -33.01010 | 30930 ft | 479 kts | 28° |
| 2026-05-07 20:56 | -9.46804 | -32.97383 | 30926 ft | 479 kts | 28° |
| 2026-05-07 20:57 | -9.41179 | -32.93738 | 30930 ft | 481 kts | 28° |
| 2026-05-07 20:57 | -9.35514 | -32.90067 | 30936 ft | 481 kts | 28° |
| 2026-05-07 20:58 | -9.29883 | -32.86421 | 30939 ft | 481 kts | 28° |
| 2026-05-07 20:58 | -9.24230 | -32.82761 | 30944 ft | 480 kts | 28° |
| 2026-05-07 20:59 | -9.18575 | -32.79102 | 30950 ft | 481 kts | 28° |
| 2026-05-07 20:59 | -9.12930 | -32.75452 | 30949 ft | 483 kts | 28° |
| 2026-05-07 21:00 | -9.07269 | -32.71790 | 30949 ft | 481 kts | 28° |
| 2026-05-07 21:00 | -9.01613 | -32.68134 | 30949 ft | 481 kts | 28° |
| 2026-05-07 21:01 | -8.95977 | -32.64493 | 30950 ft | 480 kts | 28° |
| 2026-05-07 21:01 | -8.90355 | -32.60862 | 30952 ft | 480 kts | 28° |
| 2026-05-07 21:02 | -8.84721 | -32.57224 | 30957 ft | 479 kts | 28° |
| 2026-05-07 21:02 | -8.79065 | -32.53575 | 30960 ft | 482 kts | 28° |
| 2026-05-07 21:03 | -8.73411 | -32.49927 | 30957 ft | 483 kts | 28° |
| 2026-05-07 21:03 | -8.67737 | -32.46267 | 30960 ft | 480 kts | 28° |
| 2026-05-07 21:04 | -8.62111 | -32.42640 | 30957 ft | 481 kts | 28° |
| 2026-05-07 21:04 | -8.56449 | -32.38992 | 30955 ft | 480 kts | 28° |
| 2026-05-07 21:05 | -8.50796 | -32.35349 | 30956 ft | 481 kts | 28° |
| 2026-05-07 21:05 | -8.45179 | -32.31733 | 30950 ft | 480 kts | 28° |
| 2026-05-07 21:06 | -8.39522 | -32.28090 | 30949 ft | 479 kts | 28° |
| 2026-05-07 21:06 | -8.33910 | -32.24479 | 30949 ft | 480 kts | 28° |
| 2026-05-07 21:07 | -8.28252 | -32.20838 | 30946 ft | 478 kts | 29° |
| 2026-05-07 21:07 | -8.22642 | -32.17231 | 30935 ft | 479 kts | 29° |
| 2026-05-07 21:08 | -8.17030 | -32.13623 | 30928 ft | 477 kts | 29° |
| 2026-05-07 21:08 | -8.11404 | -32.10007 | 30930 ft | 477 kts | 28° |
| 2026-05-07 21:09 | -8.05832 | -32.06427 | 30931 ft | 476 kts | 29° |
| 2026-05-07 21:09 | -8.00229 | -32.02829 | 30927 ft | 477 kts | 29° |
| 2026-05-07 21:10 | -7.94606 | -31.99219 | 30927 ft | 476 kts | 29° |
| 2026-05-07 21:10 | -7.89025 | -31.95636 | 30931 ft | 475 kts | 29° |
| 2026-05-07 21:11 | -7.83444 | -31.92056 | 30931 ft | 475 kts | 29° |
| 2026-05-07 21:11 | -7.75101 | -31.86704 | 30937 ft | 473 kts | 29° |
| 2026-05-07 21:12 | -7.69507 | -31.83119 | 30943 ft | 475 kts | 29° |
| 2026-05-07 21:12 | -7.63950 | -31.79558 | 30950 ft | 473 kts | 29° |
| 2026-05-07 21:13 | -7.58410 | -31.76008 | 30954 ft | 472 kts | 29° |
| 2026-05-07 21:13 | -7.52847 | -31.72444 | 30952 ft | 472 kts | 29° |
| 2026-05-07 21:14 | -7.47303 | -31.68895 | 30951 ft | 472 kts | 29° |
| 2026-05-07 21:14 | -7.41769 | -31.65352 | 30953 ft | 469 kts | 30° |
| 2026-05-07 21:15 | -7.36232 | -31.61810 | 30953 ft | 472 kts | 30° |
| 2026-05-07 21:15 | -7.30691 | -31.58264 | 30952 ft | 470 kts | 29° |
| 2026-05-07 21:16 | -7.25152 | -31.54722 | 30957 ft | 469 kts | 30° |
| 2026-05-07 21:16 | -7.19631 | -31.51192 | 30948 ft | 469 kts | 30° |
| 2026-05-07 21:17 | -7.14151 | -31.47690 | 30951 ft | 468 kts | 30° |
| 2026-05-07 21:17 | -7.08648 | -31.44174 | 30950 ft | 469 kts | 30° |
| 2026-05-07 21:18 | -7.03154 | -31.40664 | 30949 ft | 466 kts | 30° |
| 2026-05-07 21:18 | -6.97644 | -31.37145 | 30945 ft | 467 kts | 30° |
| 2026-05-07 21:19 | -6.92159 | -31.33643 | 30945 ft | 466 kts | 30° |
| 2026-05-07 21:19 | -6.86663 | -31.30135 | 30952 ft | 464 kts | 30° |
| 2026-05-07 21:20 | -6.81208 | -31.26655 | 30952 ft | 465 kts | 30° |
| 2026-05-07 21:20 | -6.75891 | -31.23263 | 30948 ft | 466 kts | 30° |
| 2026-05-07 21:21 | -6.70692 | -31.19948 | 30948 ft | 465 kts | 30° |
| 2026-05-07 21:21 | -6.65219 | -31.16458 | 30954 ft | 467 kts | 30° |
| 2026-05-07 21:22 | -6.59729 | -31.12959 | 30952 ft | 466 kts | 31° |
| 2026-05-07 21:22 | -6.54257 | -31.09472 | 30950 ft | 467 kts | 31° |
| 2026-05-07 21:23 | -6.48769 | -31.05975 | 30951 ft | 466 kts | 31° |
| 2026-05-07 21:23 | -6.43271 | -31.02474 | 30949 ft | 466 kts | 31° |
| 2026-05-07 21:24 | -6.37775 | -30.98975 | 30950 ft | 468 kts | 31° |
| 2026-05-07 21:24 | -6.32284 | -30.95480 | 30953 ft | 469 kts | 31° |
| 2026-05-07 21:25 | -6.26766 | -30.91968 | 30939 ft | 467 kts | 31° |
| 2026-05-07 21:25 | -6.21259 | -30.88464 | 30924 ft | 470 kts | 31° |
| 2026-05-07 21:26 | -6.15733 | -30.84949 | 30933 ft | 470 kts | 31° |
| 2026-05-07 21:26 | -6.10185 | -30.81421 | 30928 ft | 470 kts | 31° |
| 2026-05-07 21:27 | -6.04641 | -30.77896 | 30931 ft | 470 kts | 31° |
| 2026-05-07 21:27 | -5.99300 | -30.74502 | 30931 ft | 471 kts | 31° |
| 2026-05-07 21:28 | -5.93756 | -30.70979 | 30941 ft | 471 kts | 31° |
| 2026-05-07 21:28 | -5.88239 | -30.67473 | 30950 ft | 470 kts | 31° |
| 2026-05-07 21:29 | -5.83303 | -30.64336 | 30955 ft | 470 kts | 31° |
| 2026-05-07 21:29 | -5.77757 | -30.60815 | 30951 ft | 471 kts | 31° |
| 2026-05-07 21:30 | -5.72152 | -30.57257 | 30952 ft | 473 kts | 31° |
| 2026-05-07 21:30 | -5.66593 | -30.53729 | 30952 ft | 473 kts | 31° |
| 2026-05-07 21:31 | -5.61058 | -30.50217 | 30947 ft | 472 kts | 31° |
| 2026-05-07 21:31 | -5.55480 | -30.46678 | 30952 ft | 474 kts | 31° |
| 2026-05-07 21:32 | -5.49886 | -30.43130 | 30950 ft | 473 kts | 31° |
| 2026-05-07 21:32 | -5.44303 | -30.39590 | 30952 ft | 475 kts | 31° |
| 2026-05-07 21:33 | -5.38701 | -30.36038 | 30950 ft | 475 kts | 31° |
| 2026-05-07 21:33 | -5.33101 | -30.32488 | 30950 ft | 477 kts | 31° |
| 2026-05-07 21:34 | -5.27462 | -30.28915 | 30952 ft | 478 kts | 31° |
| 2026-05-07 21:34 | -5.21875 | -30.25374 | 30950 ft | 476 kts | 31° |
| 2026-05-07 21:35 | -5.16223 | -30.21795 | 30950 ft | 477 kts | 31° |
| 2026-05-07 21:35 | -5.10586 | -30.18225 | 30950 ft | 479 kts | 31° |
| 2026-05-07 21:36 | -5.04968 | -30.14667 | 30949 ft | 478 kts | 31° |
| 2026-05-07 21:36 | -4.99298 | -30.11078 | 30947 ft | 481 kts | 31° |
| 2026-05-07 21:37 | -4.93661 | -30.07510 | 30947 ft | 480 kts | 31° |
| 2026-05-07 21:37 | -4.88018 | -30.03940 | 30948 ft | 480 kts | 31° |
| 2026-05-07 21:38 | -4.82329 | -30.00340 | 30949 ft | 480 kts | 31° |
| 2026-05-07 21:38 | -4.76650 | -29.96748 | 30950 ft | 482 kts | 31° |
| 2026-05-07 21:39 | -4.70982 | -29.93164 | 30950 ft | 482 kts | 31° |
| 2026-05-07 21:39 | -4.65327 | -29.89588 | 30951 ft | 482 kts | 31° |
| 2026-05-07 21:40 | -4.59614 | -29.85977 | 30950 ft | 482 kts | 31° |
| 2026-05-07 21:40 | -4.53954 | -29.82399 | 30947 ft | 482 kts | 31° |
| 2026-05-07 21:41 | -4.48264 | -29.78803 | 30948 ft | 482 kts | 31° |
| 2026-05-07 21:41 | -4.42581 | -29.75213 | 30949 ft | 483 kts | 31° |
| 2026-05-07 21:42 | -4.36878 | -29.71611 | 30951 ft | 483 kts | 31° |
| 2026-05-07 21:42 | -4.31205 | -29.68028 | 30951 ft | 483 kts | 31° |
| 2026-05-07 21:43 | -4.25514 | -29.64434 | 30950 ft | 483 kts | 31° |
| 2026-05-07 21:43 | -4.19825 | -29.60843 | 30949 ft | 482 kts | 31° |
| 2026-05-07 21:44 | -4.14135 | -29.57250 | 30948 ft | 483 kts | 31° |
| 2026-05-07 21:44 | -4.08423 | -29.53646 | 30951 ft | 483 kts | 31° |
| 2026-05-07 21:45 | -4.02722 | -29.50049 | 30951 ft | 483 kts | 31° |
| 2026-05-07 21:45 | -3.97038 | -29.46462 | 30956 ft | 482 kts | 31° |
| 2026-05-07 21:46 | -3.91353 | -29.42876 | 30952 ft | 481 kts | 31° |
| 2026-05-07 21:46 | -3.85641 | -29.39274 | 30950 ft | 482 kts | 31° |
| 2026-05-07 21:47 | -3.79978 | -29.35702 | 30953 ft | 481 kts | 31° |
| 2026-05-07 21:47 | -3.74307 | -29.32127 | 30950 ft | 479 kts | 31° |
| 2026-05-07 21:48 | -3.68670 | -29.28573 | 30946 ft | 480 kts | 31° |
| 2026-05-07 21:48 | -3.62991 | -29.24994 | 30940 ft | 479 kts | 31° |
| 2026-05-07 21:49 | -3.57358 | -29.21444 | 30940 ft | 480 kts | 31° |
| 2026-05-07 21:49 | -3.51698 | -29.17880 | 30937 ft | 480 kts | 31° |
| 2026-05-07 21:50 | -3.46028 | -29.14309 | 30935 ft | 479 kts | 31° |
| 2026-05-07 21:50 | -3.40401 | -29.10766 | 30935 ft | 478 kts | 31° |
| 2026-05-07 21:51 | -3.34741 | -29.07203 | 30937 ft | 479 kts | 31° |
| 2026-05-07 21:51 | -3.29096 | -29.03650 | 30932 ft | 478 kts | 31° |
| 2026-05-07 21:52 | -3.23478 | -29.00114 | 30934 ft | 478 kts | 31° |
| 2026-05-07 21:52 | -3.17839 | -28.96566 | 30933 ft | 478 kts | 31° |
| 2026-05-07 21:53 | -3.12204 | -28.93020 | 30929 ft | 478 kts | 31° |
| 2026-05-07 21:53 | -3.06542 | -28.89458 | 30929 ft | 478 kts | 31° |
| 2026-05-07 21:54 | -3.00891 | -28.85901 | 30931 ft | 478 kts | 31° |
| 2026-05-07 21:54 | -2.95287 | -28.82372 | 30927 ft | 477 kts | 31° |
| 2026-05-07 21:55 | -2.89645 | -28.78820 | 30929 ft | 478 kts | 31° |
| 2026-05-07 21:55 | -2.84024 | -28.75282 | 30929 ft | 478 kts | 31° |
| 2026-05-07 21:56 | -2.78388 | -28.71735 | 30928 ft | 478 kts | 32° |
| 2026-05-07 21:56 | -2.72724 | -28.68171 | 30924 ft | 479 kts | 32° |
| 2026-05-07 21:57 | -2.67092 | -28.64627 | 30928 ft | 479 kts | 32° |
| 2026-05-07 21:57 | -2.61471 | -28.61091 | 30928 ft | 477 kts | 32° |
| 2026-05-07 21:58 | -2.55819 | -28.57536 | 30928 ft | 478 kts | 32° |
| 2026-05-07 21:58 | -2.50169 | -28.53982 | 30930 ft | 478 kts | 32° |
| 2026-05-07 21:59 | -2.44553 | -28.50449 | 30930 ft | 477 kts | 32° |
| 2026-05-07 21:59 | -2.38912 | -28.46902 | 30930 ft | 478 kts | 32° |
| 2026-05-07 22:00 | -2.33296 | -28.43371 | 30930 ft | 478 kts | 32° |
| 2026-05-07 22:00 | -2.27660 | -28.39827 | 30931 ft | 477 kts | 32° |
| 2026-05-07 22:01 | -2.22038 | -28.36292 | 30931 ft | 479 kts | 32° |
| 2026-05-07 22:01 | -2.16385 | -28.32739 | 30933 ft | 477 kts | 32° |
| 2026-05-07 22:02 | -2.10769 | -28.29209 | 30931 ft | 478 kts | 32° |
| 2026-05-07 22:02 | -2.05161 | -28.25684 | 30931 ft | 478 kts | 32° |
| 2026-05-07 22:03 | -1.99518 | -28.22138 | 30929 ft | 477 kts | 32° |
| 2026-05-07 22:03 | -1.93881 | -28.18595 | 30930 ft | 477 kts | 32° |
| 2026-05-07 22:04 | -1.88263 | -28.15064 | 30933 ft | 476 kts | 32° |
| 2026-05-07 22:04 | -1.82663 | -28.11546 | 30930 ft | 476 kts | 32° |
| 2026-05-07 22:05 | -1.77038 | -28.08012 | 30930 ft | 477 kts | 32° |
| 2026-05-07 22:05 | -1.71396 | -28.04467 | 30931 ft | 477 kts | 32° |
| 2026-05-07 22:06 | -1.65787 | -28.00944 | 30931 ft | 477 kts | 32° |
| 2026-05-07 22:06 | -1.60148 | -27.97402 | 30928 ft | 478 kts | 32° |
| 2026-05-07 22:07 | -1.54526 | -27.93870 | 30930 ft | 478 kts | 32° |
| 2026-05-07 22:07 | -1.48879 | -27.90324 | 30930 ft | 477 kts | 32° |
| 2026-05-07 22:08 | -1.43255 | -27.86792 | 30928 ft | 477 kts | 32° |
| 2026-05-07 22:08 | -1.37586 | -27.83232 | 30929 ft | 478 kts | 32° |
| 2026-05-07 22:09 | -1.31955 | -27.79696 | 30927 ft | 478 kts | 32° |
| 2026-05-07 22:09 | -1.26308 | -27.76150 | 30925 ft | 479 kts | 32° |
| 2026-05-07 22:10 | -1.20647 | -27.72596 | 30921 ft | 480 kts | 32° |
| 2026-05-07 22:10 | -1.15011 | -27.69057 | 30912 ft | 479 kts | 32° |
| 2026-05-07 22:11 | -1.09370 | -27.65515 | 30909 ft | 479 kts | 32° |
| 2026-05-07 22:11 | -1.03731 | -27.61975 | 30908 ft | 479 kts | 32° |
| 2026-05-07 22:12 | -0.98081 | -27.58428 | 30908 ft | 479 kts | 32° |
| 2026-05-07 22:12 | -0.92417 | -27.54873 | 30908 ft | 479 kts | 32° |
| 2026-05-07 22:13 | -0.86746 | -27.51313 | 30910 ft | 479 kts | 32° |
| 2026-05-07 22:13 | -0.81116 | -27.47779 | 30910 ft | 480 kts | 32° |
| 2026-05-07 22:14 | -0.75438 | -27.44215 | 30910 ft | 479 kts | 32° |
| 2026-05-07 22:14 | -0.69815 | -27.40686 | 30909 ft | 479 kts | 32° |
| 2026-05-07 22:15 | -0.64133 | -27.37120 | 30909 ft | 479 kts | 32° |
| 2026-05-07 22:15 | -0.58494 | -27.33580 | 30911 ft | 479 kts | 32° |
| 2026-05-07 22:16 | -0.52818 | -27.30048 | 30910 ft | 479 kts | 32° |
| 2026-05-07 22:16 | -0.47161 | -27.26552 | 30909 ft | 481 kts | 32° |
| 2026-05-07 22:17 | -0.41453 | -27.23022 | 30910 ft | 480 kts | 32° |
| 2026-05-07 22:17 | -0.35783 | -27.19515 | 30910 ft | 480 kts | 32° |
| 2026-05-07 22:18 | -0.27232 | -27.14224 | 30920 ft | 481 kts | 32° |
| 2026-05-07 22:19 | -0.21566 | -27.10686 | 30930 ft | 480 kts | 33° |
| 2026-05-07 22:19 | -0.15892 | -27.07124 | 30928 ft | 480 kts | 33° |
| 2026-05-07 22:20 | -0.10223 | -27.03568 | 30930 ft | 481 kts | 33° |
| 2026-05-07 22:20 | -0.04563 | -27.00017 | 30929 ft | 480 kts | 33° |
| 2026-05-07 22:21 | 0.01107 | -26.96460 | 30929 ft | 480 kts | 33° |
| 2026-05-07 22:21 | 0.06775 | -26.92906 | 30930 ft | 481 kts | 33° |
| 2026-05-07 22:22 | 0.12434 | -26.89357 | 30931 ft | 480 kts | 33° |
| 2026-05-07 22:22 | 0.18095 | -26.85807 | 30930 ft | 477 kts | 33° |
| 2026-05-07 22:23 | 0.23682 | -26.82303 | 30929 ft | 476 kts | 33° |
| 2026-05-07 22:23 | 0.29346 | -26.78751 | 30930 ft | 478 kts | 33° |
| 2026-05-07 22:24 | 0.34973 | -26.75222 | 30930 ft | 478 kts | 33° |
| 2026-05-07 22:24 | 0.40595 | -26.71696 | 30929 ft | 476 kts | 33° |
| 2026-05-07 22:25 | 0.46216 | -26.68171 | 30929 ft | 478 kts | 33° |
| 2026-05-07 22:25 | 0.51855 | -26.64634 | 30929 ft | 478 kts | 33° |
| 2026-05-07 22:26 | 0.57486 | -26.61103 | 30929 ft | 477 kts | 33° |
| 2026-05-07 22:26 | 0.63117 | -26.57571 | 30929 ft | 477 kts | 33° |
| 2026-05-07 22:27 | 0.68760 | -26.54031 | 30928 ft | 477 kts | 33° |
| 2026-05-07 22:27 | 0.74365 | -26.50516 | 30928 ft | 476 kts | 33° |
| 2026-05-07 22:28 | 0.79997 | -26.46983 | 30928 ft | 477 kts | 33° |
| 2026-05-07 22:28 | 0.85632 | -26.43449 | 30928 ft | 477 kts | 33° |
| 2026-05-07 22:29 | 0.91239 | -26.39931 | 30929 ft | 479 kts | 33° |
| 2026-05-07 22:29 | 0.96898 | -26.36381 | 30928 ft | 477 kts | 33° |
| 2026-05-07 22:30 | 1.02513 | -26.32859 | 30929 ft | 477 kts | 33° |
| 2026-05-07 22:30 | 1.08176 | -26.29306 | 30988 ft | 485 kts | 33° |
| 2026-05-07 22:30 | 1.11053 | -26.27501 | 31445 ft | 486 kts | 33° |
| 2026-05-07 22:31 | 1.13889 | -26.25722 | 32191 ft | 481 kts | 32° |
| 2026-05-07 22:31 | 1.16698 | -26.23959 | 32824 ft | 479 kts | 32° |
| 2026-05-07 22:31 | 1.19536 | -26.22179 | 32925 ft | 482 kts | 32° |
| 2026-05-07 22:32 | 1.25202 | -26.18625 | 32931 ft | 478 kts | 32° |
| 2026-05-07 22:32 | 1.30861 | -26.15077 | 32931 ft | 478 kts | 32° |
| 2026-05-07 22:33 | 1.36471 | -26.11559 | 32931 ft | 478 kts | 33° |
| 2026-05-07 22:33 | 1.42121 | -26.08015 | 32931 ft | 478 kts | 33° |
| 2026-05-07 22:34 | 1.47778 | -26.04467 | 32930 ft | 478 kts | 33° |
| 2026-05-07 22:34 | 1.53157 | -26.01093 | 32924 ft | 479 kts | 33° |
| 2026-05-07 22:35 | 1.58363 | -25.97828 | 32919 ft | 479 kts | 33° |
| 2026-05-07 22:35 | 1.64006 | -25.94288 | 32917 ft | 479 kts | 33° |
| 2026-05-07 22:36 | 1.69585 | -25.90788 | 32915 ft | 480 kts | 33° |
| 2026-05-07 22:36 | 1.75236 | -25.87243 | 32915 ft | 479 kts | 33° |
| 2026-05-07 22:37 | 1.80891 | -25.83695 | 32916 ft | 479 kts | 33° |
| 2026-05-07 22:37 | 1.86523 | -25.80160 | 32914 ft | 479 kts | 33° |
| 2026-05-07 22:38 | 1.92190 | -25.76605 | 32910 ft | 480 kts | 33° |
| 2026-05-07 22:38 | 1.97836 | -25.73061 | 32910 ft | 481 kts | 33° |
| 2026-05-07 22:39 | 2.03514 | -25.69497 | 32911 ft | 482 kts | 33° |
| 2026-05-07 22:39 | 2.09118 | -25.65980 | 32910 ft | 481 kts | 33° |
| 2026-05-07 22:40 | 2.14696 | -25.62478 | 32910 ft | 482 kts | 33° |
| 2026-05-07 22:40 | 2.20358 | -25.58923 | 32911 ft | 481 kts | 33° |
| 2026-05-07 22:41 | 2.26030 | -25.55363 | 32914 ft | 480 kts | 33° |
| 2026-05-07 22:41 | 2.31701 | -25.51802 | 32920 ft | 481 kts | 33° |
| 2026-05-07 22:42 | 2.37367 | -25.48243 | 32923 ft | 481 kts | 33° |
| 2026-05-07 22:42 | 2.43037 | -25.44683 | 32926 ft | 482 kts | 33° |
| 2026-05-07 22:43 | 2.48713 | -25.41118 | 32929 ft | 482 kts | 33° |
| 2026-05-07 22:43 | 2.54403 | -25.37544 | 32929 ft | 481 kts | 33° |
| 2026-05-07 22:44 | 2.60082 | -25.33975 | 32931 ft | 481 kts | 33° |
| 2026-05-07 22:44 | 2.65746 | -25.30417 | 32931 ft | 481 kts | 33° |
| 2026-05-07 22:45 | 2.71439 | -25.26840 | 32931 ft | 481 kts | 33° |
| 2026-05-07 22:45 | 2.77122 | -25.23268 | 32931 ft | 481 kts | 33° |
| 2026-05-07 22:46 | 2.82789 | -25.19707 | 32931 ft | 481 kts | 33° |
| 2026-05-07 22:46 | 2.88488 | -25.16124 | 32931 ft | 481 kts | 33° |
| 2026-05-07 22:47 | 2.94134 | -25.12575 | 32931 ft | 481 kts | 33° |
| 2026-05-07 22:47 | 2.99822 | -25.08999 | 32931 ft | 482 kts | 33° |
| 2026-05-07 22:48 | 3.05508 | -25.05423 | 32931 ft | 482 kts | 33° |
| 2026-05-07 22:48 | 3.11207 | -25.01839 | 32930 ft | 482 kts | 33° |
| 2026-05-07 22:49 | 3.16910 | -24.98252 | 32930 ft | 483 kts | 33° |
| 2026-05-07 22:49 | 3.22579 | -24.94686 | 32930 ft | 482 kts | 33° |
| 2026-05-07 22:50 | 3.28256 | -24.91114 | 32930 ft | 481 kts | 33° |
| 2026-05-07 22:50 | 3.33933 | -24.87542 | 32930 ft | 481 kts | 33° |
| 2026-05-07 22:51 | 3.39628 | -24.83959 | 32930 ft | 481 kts | 33° |
| 2026-05-07 22:51 | 3.45285 | -24.80398 | 32930 ft | 482 kts | 33° |
| 2026-05-07 22:52 | 3.50824 | -24.76911 | 32930 ft | 482 kts | 33° |
| 2026-05-07 22:52 | 3.56434 | -24.73379 | 32930 ft | 482 kts | 33° |
| 2026-05-07 22:53 | 3.62134 | -24.69790 | 32930 ft | 482 kts | 33° |
| 2026-05-07 22:53 | 3.67799 | -24.66222 | 32930 ft | 482 kts | 33° |
| 2026-05-07 22:54 | 3.73498 | -24.62633 | 32930 ft | 483 kts | 33° |
| 2026-05-07 22:54 | 3.79185 | -24.59050 | 32930 ft | 484 kts | 33° |
| 2026-05-07 22:55 | 3.84879 | -24.55463 | 32930 ft | 484 kts | 33° |
| 2026-05-07 22:55 | 3.90594 | -24.51862 | 32930 ft | 483 kts | 33° |
| 2026-05-07 22:56 | 3.96279 | -24.48279 | 32929 ft | 482 kts | 33° |
| 2026-05-07 22:56 | 4.01956 | -24.44700 | 32928 ft | 483 kts | 33° |
| 2026-05-07 22:57 | 4.07681 | -24.41091 | 32928 ft | 483 kts | 33° |
| 2026-05-07 22:57 | 4.13385 | -24.37494 | 32927 ft | 484 kts | 33° |
| 2026-05-07 22:58 | 4.19087 | -24.33898 | 32930 ft | 484 kts | 33° |
| 2026-05-07 22:58 | 4.24774 | -24.30311 | 32930 ft | 483 kts | 33° |
| 2026-05-07 22:59 | 4.30320 | -24.26811 | 32926 ft | 483 kts | 33° |
| 2026-05-07 22:59 | 4.36024 | -24.23212 | 32937 ft | 484 kts | 33° |
| 2026-05-07 23:00 | 4.41646 | -24.19663 | 32950 ft | 484 kts | 33° |
| 2026-05-07 23:00 | 4.47331 | -24.16075 | 32949 ft | 484 kts | 33° |
| 2026-05-07 23:01 | 4.53038 | -24.12472 | 32950 ft | 483 kts | 33° |
| 2026-05-07 23:01 | 4.58713 | -24.08888 | 32949 ft | 484 kts | 33° |
| 2026-05-07 23:02 | 4.64453 | -24.05263 | 32951 ft | 484 kts | 33° |
| 2026-05-07 23:02 | 4.70135 | -24.01674 | 32950 ft | 484 kts | 33° |
| 2026-05-07 23:03 | 4.75842 | -23.98068 | 32949 ft | 484 kts | 33° |
| 2026-05-07 23:03 | 4.81562 | -23.94452 | 32950 ft | 484 kts | 33° |
| 2026-05-07 23:04 | 4.87243 | -23.90861 | 32949 ft | 484 kts | 33° |
| 2026-05-07 23:04 | 4.92961 | -23.87246 | 32953 ft | 484 kts | 33° |
| 2026-05-07 23:05 | 4.98680 | -23.83630 | 32948 ft | 485 kts | 33° |
| 2026-05-07 23:05 | 5.04381 | -23.80024 | 32951 ft | 485 kts | 33° |
| 2026-05-07 23:06 | 5.10097 | -23.76408 | 32952 ft | 485 kts | 33° |
| 2026-05-07 23:06 | 5.15806 | -23.72796 | 32953 ft | 484 kts | 33° |
| 2026-05-07 23:07 | 5.21524 | -23.69176 | 32952 ft | 484 kts | 33° |
| 2026-05-07 23:07 | 5.27216 | -23.65573 | 32952 ft | 484 kts | 33° |
| 2026-05-07 23:08 | 5.32914 | -23.61965 | 32951 ft | 485 kts | 33° |
| 2026-05-07 23:08 | 5.38623 | -23.58350 | 32952 ft | 485 kts | 33° |
| 2026-05-07 23:09 | 5.44335 | -23.54731 | 32952 ft | 485 kts | 33° |
| 2026-05-07 23:09 | 5.50061 | -23.51103 | 32946 ft | 484 kts | 33° |
| 2026-05-07 23:10 | 5.55746 | -23.47501 | 32943 ft | 484 kts | 33° |
| 2026-05-07 23:10 | 5.61477 | -23.43867 | 32942 ft | 484 kts | 33° |
| 2026-05-07 23:11 | 5.67153 | -23.40269 | 32944 ft | 484 kts | 33° |
| 2026-05-07 23:11 | 5.72855 | -23.36653 | 32945 ft | 484 kts | 33° |
| 2026-05-07 23:12 | 5.78560 | -23.33034 | 32947 ft | 485 kts | 33° |
| 2026-05-07 23:12 | 5.84252 | -23.29422 | 32950 ft | 482 kts | 33° |
| 2026-05-07 23:13 | 5.89944 | -23.25810 | 32949 ft | 480 kts | 32° |
| 2026-05-07 23:13 | 5.95601 | -23.22218 | 32943 ft | 481 kts | 33° |
| 2026-05-07 23:14 | 6.01273 | -23.18617 | 32937 ft | 481 kts | 33° |
| 2026-05-07 23:14 | 6.06934 | -23.15021 | 32935 ft | 483 kts | 33° |
| 2026-05-07 23:15 | 6.12641 | -23.11396 | 32935 ft | 484 kts | 33° |
| 2026-05-07 23:15 | 6.18345 | -23.07771 | 32934 ft | 484 kts | 33° |
| 2026-05-07 23:16 | 6.24049 | -23.04145 | 32936 ft | 485 kts | 33° |
| 2026-05-07 23:16 | 6.29704 | -23.00550 | 32937 ft | 482 kts | 33° |
| 2026-05-07 23:17 | 6.35388 | -22.96935 | 32945 ft | 480 kts | 33° |
| 2026-05-07 23:17 | 6.41063 | -22.93323 | 32951 ft | 484 kts | 33° |
| 2026-05-07 23:18 | 6.46773 | -22.89688 | 32957 ft | 487 kts | 33° |
| 2026-05-07 23:18 | 6.52515 | -22.86031 | 32957 ft | 487 kts | 33° |
| 2026-05-07 23:19 | 6.58253 | -22.82376 | 32960 ft | 489 kts | 32° |
| 2026-05-07 23:19 | 6.63992 | -22.78719 | 32962 ft | 488 kts | 32° |
| 2026-05-07 23:20 | 6.69733 | -22.75060 | 32958 ft | 488 kts | 32° |
| 2026-05-07 23:20 | 6.75481 | -22.71395 | 32956 ft | 490 kts | 32° |
| 2026-05-07 23:21 | 6.81266 | -22.67706 | 32952 ft | 490 kts | 32° |
| 2026-05-07 23:21 | 6.87027 | -22.64031 | 32950 ft | 491 kts | 32° |
| 2026-05-07 23:22 | 6.92818 | -22.60336 | 32950 ft | 490 kts | 32° |
| 2026-05-07 23:22 | 6.98589 | -22.56652 | 32955 ft | 493 kts | 32° |
| 2026-05-07 23:23 | 7.04369 | -22.52962 | 32950 ft | 493 kts | 32° |
| 2026-05-07 23:23 | 7.10173 | -22.49256 | 32952 ft | 492 kts | 33° |
| 2026-05-07 23:24 | 7.15963 | -22.45556 | 32954 ft | 493 kts | 33° |
| 2026-05-07 23:24 | 7.21770 | -22.41845 | 32952 ft | 493 kts | 33° |
| 2026-05-07 23:25 | 7.27608 | -22.38113 | 32953 ft | 495 kts | 33° |
| 2026-05-07 23:25 | 7.33430 | -22.34391 | 32953 ft | 494 kts | 33° |
| 2026-05-07 23:26 | 7.39242 | -22.30673 | 32954 ft | 496 kts | 33° |
| 2026-05-07 23:26 | 7.45056 | -22.26953 | 32953 ft | 495 kts | 33° |
| 2026-05-07 23:27 | 7.53775 | -22.21372 | 32956 ft | 496 kts | 33° |
| 2026-05-07 23:27 | 7.59616 | -22.17631 | 32954 ft | 495 kts | 34° |
| 2026-05-07 23:28 | 7.65423 | -22.13912 | 32953 ft | 496 kts | 33° |
| 2026-05-07 23:28 | 7.71266 | -22.10167 | 32954 ft | 497 kts | 34° |
| 2026-05-07 23:29 | 7.77109 | -22.06422 | 32954 ft | 496 kts | 34° |
| 2026-05-07 23:29 | 7.82910 | -22.02702 | 32955 ft | 497 kts | 34° |
| 2026-05-07 23:30 | 7.88739 | -21.98964 | 32953 ft | 495 kts | 34° |
| 2026-05-07 23:30 | 7.94571 | -21.95221 | 32953 ft | 497 kts | 34° |
| 2026-05-07 23:31 | 8.00431 | -21.91460 | 32955 ft | 495 kts | 34° |
| 2026-05-07 23:31 | 8.06253 | -21.87722 | 32954 ft | 497 kts | 34° |
| 2026-05-07 23:32 | 8.12052 | -21.83997 | 32948 ft | 496 kts | 34° |
| 2026-05-07 23:32 | 8.17919 | -21.80227 | 32948 ft | 496 kts | 34° |
| 2026-05-07 23:33 | 8.23732 | -21.76491 | 32950 ft | 496 kts | 34° |
| 2026-05-07 23:33 | 8.29547 | -21.72752 | 32950 ft | 496 kts | 34° |
| 2026-05-07 23:34 | 8.35423 | -21.68972 | 32951 ft | 500 kts | 34° |
| 2026-05-07 23:34 | 8.41253 | -21.65221 | 32950 ft | 498 kts | 33° |
| 2026-05-07 23:35 | 8.47108 | -21.61453 | 32951 ft | 497 kts | 34° |
| 2026-05-07 23:35 | 8.52931 | -21.57703 | 32952 ft | 498 kts | 34° |
| 2026-05-07 23:36 | 8.58777 | -21.53937 | 32952 ft | 497 kts | 33° |
| 2026-05-07 23:36 | 8.64625 | -21.50169 | 32951 ft | 497 kts | 33° |
| 2026-05-07 23:37 | 8.70448 | -21.46416 | 32951 ft | 498 kts | 33° |
| 2026-05-07 23:37 | 8.76324 | -21.42626 | 32952 ft | 497 kts | 33° |
| 2026-05-07 23:38 | 8.82163 | -21.38859 | 32953 ft | 498 kts | 33° |
| 2026-05-07 23:38 | 8.88023 | -21.35077 | 32960 ft | 498 kts | 33° |
| 2026-05-07 23:39 | 8.93868 | -21.31304 | 32963 ft | 498 kts | 33° |
| 2026-05-07 23:39 | 8.99567 | -21.27623 | 32970 ft | 499 kts | 33° |
| 2026-05-07 23:40 | 9.05437 | -21.23831 | 32972 ft | 498 kts | 33° |
| 2026-05-07 23:40 | 9.11177 | -21.20120 | 32974 ft | 499 kts | 33° |
| 2026-05-07 23:41 | 9.16900 | -21.16420 | 32973 ft | 497 kts | 33° |
| 2026-05-07 23:41 | 9.22776 | -21.12619 | 32972 ft | 500 kts | 33° |
| 2026-05-07 23:42 | 9.28642 | -21.08823 | 32970 ft | 498 kts | 33° |
| 2026-05-07 23:42 | 9.34487 | -21.05038 | 32974 ft | 500 kts | 33° |
| 2026-05-07 23:43 | 9.40352 | -21.01240 | 32973 ft | 499 kts | 33° |
| 2026-05-07 23:43 | 9.46210 | -20.97445 | 32968 ft | 500 kts | 33° |
| 2026-05-07 23:44 | 9.52118 | -20.93616 | 32972 ft | 500 kts | 33° |
| 2026-05-07 23:44 | 9.58001 | -20.89801 | 32973 ft | 501 kts | 33° |
| 2026-05-07 23:45 | 9.63861 | -20.85999 | 32971 ft | 501 kts | 33° |
| 2026-05-07 23:45 | 9.69709 | -20.82204 | 32968 ft | 501 kts | 33° |
| 2026-05-07 23:46 | 9.75625 | -20.78363 | 32968 ft | 501 kts | 33° |
| 2026-05-07 23:46 | 9.81500 | -20.74547 | 32958 ft | 502 kts | 33° |
| 2026-05-07 23:47 | 9.87376 | -20.70728 | 32953 ft | 502 kts | 33° |
| 2026-05-07 23:47 | 9.93272 | -20.66896 | 32957 ft | 503 kts | 33° |
| 2026-05-07 23:48 | 9.99197 | -20.63042 | 32954 ft | 504 kts | 33° |
| 2026-05-07 23:48 | 10.05162 | -20.59161 | 32956 ft | 503 kts | 33° |
| 2026-05-07 23:49 | 10.11046 | -20.55331 | 32954 ft | 502 kts | 33° |
| 2026-05-07 23:49 | 10.16950 | -20.51486 | 32951 ft | 504 kts | 33° |
| 2026-05-07 23:50 | 10.22841 | -20.47648 | 32952 ft | 502 kts | 33° |
| 2026-05-07 23:50 | 10.28755 | -20.43793 | 32952 ft | 504 kts | 33° |
| 2026-05-07 23:51 | 10.34698 | -20.39917 | 32950 ft | 504 kts | 33° |
| 2026-05-07 23:51 | 10.40595 | -20.36070 | 32954 ft | 507 kts | 33° |
| 2026-05-07 23:52 | 10.46544 | -20.32187 | 32948 ft | 505 kts | 33° |
| 2026-05-07 23:52 | 10.52497 | -20.28299 | 32950 ft | 505 kts | 33° |
| 2026-05-07 23:53 | 10.58431 | -20.24423 | 32951 ft | 507 kts | 33° |
| 2026-05-07 23:53 | 10.64356 | -20.20550 | 32950 ft | 505 kts | 33° |
| 2026-05-07 23:54 | 10.70274 | -20.16680 | 32951 ft | 505 kts | 33° |
| 2026-05-07 23:54 | 10.76179 | -20.12817 | 32951 ft | 506 kts | 32° |
| 2026-05-07 23:55 | 10.82102 | -20.08940 | 32953 ft | 507 kts | 32° |
| 2026-05-07 23:55 | 10.88024 | -20.05062 | 32953 ft | 506 kts | 33° |
| 2026-05-07 23:56 | 10.94001 | -20.01146 | 32953 ft | 509 kts | 33° |
| 2026-05-07 23:56 | 10.99938 | -19.97255 | 32953 ft | 507 kts | 32° |
| 2026-05-07 23:57 | 11.05874 | -19.93362 | 32955 ft | 508 kts | 32° |
| 2026-05-07 23:57 | 11.11830 | -19.89454 | 32950 ft | 510 kts | 32° |
| 2026-05-07 23:58 | 11.17796 | -19.85537 | 32949 ft | 509 kts | 32° |
| 2026-05-07 23:58 | 11.23756 | -19.81622 | 32950 ft | 509 kts | 32° |
| 2026-05-07 23:59 | 11.29665 | -19.77739 | 32950 ft | 509 kts | 32° |
| 2026-05-07 23:59 | 11.35646 | -19.73807 | 32952 ft | 510 kts | 32° |
| 2026-05-08 00:00 | 11.41612 | -19.69883 | 32952 ft | 511 kts | 32° |
| 2026-05-08 00:00 | 11.47575 | -19.65959 | 32951 ft | 511 kts | 32° |
| 2026-05-08 00:01 | 11.53566 | -19.62016 | 32955 ft | 511 kts | 32° |
| 2026-05-08 00:01 | 11.59560 | -19.58068 | 32963 ft | 511 kts | 32° |
| 2026-05-08 00:02 | 11.65518 | -19.54142 | 32968 ft | 511 kts | 32° |
| 2026-05-08 00:02 | 11.71521 | -19.50185 | 32970 ft | 514 kts | 32° |
| 2026-05-08 00:03 | 11.77547 | -19.46211 | 32966 ft | 514 kts | 32° |
| 2026-05-08 00:03 | 11.83563 | -19.42240 | 32969 ft | 515 kts | 32° |
| 2026-05-08 00:04 | 11.89587 | -19.38262 | 32969 ft | 515 kts | 31° |
| 2026-05-08 00:04 | 11.95593 | -19.34294 | 32963 ft | 515 kts | 32° |
| 2026-05-08 00:05 | 12.01613 | -19.30315 | 32959 ft | 515 kts | 32° |
| 2026-05-08 00:05 | 12.07642 | -19.26327 | 32958 ft | 515 kts | 32° |
| 2026-05-08 00:06 | 12.13695 | -19.22322 | 32950 ft | 515 kts | 32° |
| 2026-05-08 00:06 | 12.19710 | -19.18339 | 32953 ft | 516 kts | 31° |
| 2026-05-08 00:07 | 12.25740 | -19.14345 | 32950 ft | 515 kts | 31° |
| 2026-05-08 00:07 | 12.31757 | -19.10357 | 32950 ft | 513 kts | 31° |
| 2026-05-08 00:08 | 12.37717 | -19.06404 | 32950 ft | 515 kts | 31° |
| 2026-05-08 00:08 | 12.43727 | -19.02416 | 32950 ft | 515 kts | 31° |
| 2026-05-08 00:09 | 12.49725 | -18.98433 | 32949 ft | 514 kts | 31° |
| 2026-05-08 00:09 | 12.55773 | -18.94416 | 32950 ft | 516 kts | 31° |
| 2026-05-08 00:10 | 12.61801 | -18.90410 | 32949 ft | 516 kts | 31° |
| 2026-05-08 00:10 | 12.67823 | -18.86404 | 32950 ft | 518 kts | 31° |
| 2026-05-08 00:11 | 12.73880 | -18.82373 | 32950 ft | 517 kts | 31° |
| 2026-05-08 00:11 | 12.79918 | -18.78354 | 32949 ft | 516 kts | 31° |
| 2026-05-08 00:12 | 12.85951 | -18.74335 | 32951 ft | 518 kts | 31° |
| 2026-05-08 00:12 | 12.91978 | -18.70317 | 32950 ft | 518 kts | 31° |
| 2026-05-08 00:13 | 12.98050 | -18.66267 | 32950 ft | 518 kts | 31° |
| 2026-05-08 00:13 | 13.04082 | -18.62241 | 32951 ft | 518 kts | 31° |
| 2026-05-08 00:14 | 13.10038 | -18.58264 | 32950 ft | 519 kts | 31° |
| 2026-05-08 00:14 | 13.16113 | -18.54204 | 32944 ft | 520 kts | 31° |
| 2026-05-08 00:15 | 13.22191 | -18.50141 | 32945 ft | 521 kts | 31° |
| 2026-05-08 00:15 | 13.28209 | -18.46115 | 32945 ft | 523 kts | 31° |
| 2026-05-08 00:16 | 13.34305 | -18.42035 | 32945 ft | 522 kts | 31° |
| 2026-05-08 00:16 | 13.40404 | -18.37950 | 32942 ft | 523 kts | 31° |
| 2026-05-08 00:17 | 13.46497 | -18.33867 | 32935 ft | 525 kts | 32° |
| 2026-05-08 00:17 | 13.52511 | -18.29834 | 32939 ft | 524 kts | 31° |
| 2026-05-08 00:18 | 13.58625 | -18.25732 | 32941 ft | 524 kts | 32° |
| 2026-05-08 00:18 | 13.64706 | -18.21649 | 32945 ft | 524 kts | 32° |
| 2026-05-08 00:19 | 13.70825 | -18.17539 | 32946 ft | 526 kts | 32° |
| 2026-05-08 00:19 | 13.77013 | -18.13380 | 33221 ft | 535 kts | 32° |
| 2026-05-08 00:20 | 13.80118 | -18.11291 | 34036 ft | 529 kts | 31° |
| 2026-05-08 00:20 | 13.83198 | -18.09218 | 34830 ft | 524 kts | 31° |
| 2026-05-08 00:20 | 13.86268 | -18.07152 | 34939 ft | 525 kts | 31° |
| 2026-05-08 00:20 | 13.89301 | -18.05110 | 34938 ft | 521 kts | 31° |
| 2026-05-08 00:21 | 13.95372 | -18.01022 | 34934 ft | 521 kts | 31° |
| 2026-05-08 00:21 | 14.01403 | -17.96957 | 34932 ft | 519 kts | 31° |
| 2026-05-08 00:22 | 14.07470 | -17.92864 | 34931 ft | 521 kts | 31° |
| 2026-05-08 00:22 | 14.13579 | -17.88740 | 34926 ft | 521 kts | 31° |
| 2026-05-08 00:23 | 14.19520 | -17.84727 | 34928 ft | 524 kts | 31° |
| 2026-05-08 00:23 | 14.25418 | -17.80740 | 34928 ft | 523 kts | 31° |
| 2026-05-08 00:24 | 14.31501 | -17.76626 | 34929 ft | 521 kts | 31° |
| 2026-05-08 00:24 | 14.37620 | -17.72485 | 34928 ft | 523 kts | 31° |
| 2026-05-08 00:25 | 14.43669 | -17.68389 | 34930 ft | 522 kts | 31° |
| 2026-05-08 00:25 | 14.49720 | -17.64288 | 34933 ft | 522 kts | 31° |
| 2026-05-08 00:26 | 14.55830 | -17.60145 | 34937 ft | 523 kts | 30° |
| 2026-05-08 00:26 | 14.61907 | -17.56020 | 34941 ft | 522 kts | 30° |
| 2026-05-08 00:27 | 14.67999 | -17.51884 | 34946 ft | 525 kts | 30° |
| 2026-05-08 00:27 | 14.74101 | -17.47737 | 34950 ft | 522 kts | 30° |
| 2026-05-08 00:28 | 14.80014 | -17.43321 | 34948 ft | 527 kts | 34° |
| 2026-05-08 00:28 | 14.85826 | -17.38763 | 34951 ft | 525 kts | 34° |
| 2026-05-08 00:29 | 14.91686 | -17.34188 | 34942 ft | 527 kts | 34° |
| 2026-05-08 00:29 | 14.97546 | -17.29623 | 34940 ft | 526 kts | 34° |
| 2026-05-08 00:30 | 15.03382 | -17.25082 | 34937 ft | 527 kts | 34° |
| 2026-05-08 00:30 | 15.09251 | -17.20516 | 34935 ft | 527 kts | 34° |
| 2026-05-08 00:31 | 15.15129 | -17.15942 | 34929 ft | 527 kts | 34° |
| 2026-05-08 00:31 | 15.20967 | -17.11398 | 34926 ft | 528 kts | 34° |
| 2026-05-08 00:32 | 15.26851 | -17.06816 | 34927 ft | 527 kts | 34° |
| 2026-05-08 00:32 | 15.32685 | -17.02268 | 34928 ft | 527 kts | 34° |
| 2026-05-08 00:33 | 15.38582 | -16.97670 | 34929 ft | 528 kts | 34° |
| 2026-05-08 00:33 | 15.44438 | -16.93100 | 34934 ft | 529 kts | 34° |
| 2026-05-08 00:34 | 15.50321 | -16.88506 | 34928 ft | 529 kts | 34° |
| 2026-05-08 00:34 | 15.56188 | -16.83921 | 34930 ft | 529 kts | 34° |
| 2026-05-08 00:35 | 15.62060 | -16.79328 | 34929 ft | 529 kts | 34° |
| 2026-05-08 00:35 | 15.67933 | -16.74731 | 34930 ft | 530 kts | 33° |
| 2026-05-08 00:36 | 15.73840 | -16.70105 | 34936 ft | 531 kts | 33° |
| 2026-05-08 00:36 | 15.79720 | -16.65496 | 34934 ft | 529 kts | 33° |
| 2026-05-08 00:37 | 15.85621 | -16.60868 | 34937 ft | 531 kts | 34° |
| 2026-05-08 00:38 | 15.94480 | -16.53912 | 34944 ft | 531 kts | 34° |
| 2026-05-08 00:38 | 16.00343 | -16.49304 | 34942 ft | 531 kts | 34° |
| 2026-05-08 00:39 | 16.06244 | -16.44677 | 34939 ft | 531 kts | 32° |
| 2026-05-08 00:39 | 16.12294 | -16.40205 | 34931 ft | 532 kts | 31° |
| 2026-05-08 00:40 | 16.18319 | -16.35764 | 34928 ft | 531 kts | 31° |
| 2026-05-08 00:40 | 16.24364 | -16.31298 | 34911 ft | 533 kts | 31° |
| 2026-05-08 00:41 | 16.30401 | -16.26828 | 34910 ft | 532 kts | 31° |
| 2026-05-08 00:41 | 16.36428 | -16.22360 | 34913 ft | 533 kts | 31° |
| 2026-05-08 00:42 | 16.42469 | -16.17876 | 34912 ft | 533 kts | 32° |
| 2026-05-08 00:42 | 16.48500 | -16.13396 | 34911 ft | 536 kts | 31° |
| 2026-05-08 00:43 | 16.54585 | -16.08869 | 34911 ft | 535 kts | 32° |
| 2026-05-08 00:43 | 16.60614 | -16.04378 | 34915 ft | 535 kts | 31° |
| 2026-05-08 00:44 | 16.66681 | -15.99856 | 34912 ft | 535 kts | 31° |
| 2026-05-08 00:44 | 16.72717 | -15.95353 | 34916 ft | 536 kts | 31° |
| 2026-05-08 00:45 | 16.78802 | -15.90810 | 34914 ft | 537 kts | 31° |
| 2026-05-08 00:45 | 16.84890 | -15.86261 | 34917 ft | 538 kts | 31° |
| 2026-05-08 00:46 | 16.91002 | -15.81690 | 34919 ft | 539 kts | 31° |
| 2026-05-08 00:46 | 16.97078 | -15.77142 | 34921 ft | 538 kts | 31° |
| 2026-05-08 00:47 | 17.03143 | -15.72599 | 34920 ft | 538 kts | 31° |
| 2026-05-08 00:47 | 17.09236 | -15.68031 | 34928 ft | 536 kts | 31° |
| 2026-05-08 00:48 | 17.15280 | -15.63497 | 34926 ft | 538 kts | 31° |
| 2026-05-08 00:48 | 17.21399 | -15.58904 | 34929 ft | 538 kts | 31° |
| 2026-05-08 00:49 | 17.27475 | -15.54338 | 34930 ft | 537 kts | 31° |
| 2026-05-08 00:49 | 17.33530 | -15.49785 | 34937 ft | 541 kts | 31° |
| 2026-05-08 00:50 | 17.39649 | -15.45180 | 34932 ft | 539 kts | 31° |
| 2026-05-08 00:50 | 17.45715 | -15.40611 | 34934 ft | 539 kts | 31° |
| 2026-05-08 00:51 | 17.51823 | -15.36006 | 34932 ft | 539 kts | 31° |
| 2026-05-08 00:51 | 17.57909 | -15.31415 | 34909 ft | 542 kts | 31° |
| 2026-05-08 00:52 | 17.64048 | -15.26779 | 34908 ft | 542 kts | 32° |
| 2026-05-08 00:52 | 17.70147 | -15.22173 | 34910 ft | 540 kts | 31° |
| 2026-05-08 00:53 | 17.76261 | -15.17556 | 34914 ft | 542 kts | 31° |
| 2026-05-08 00:53 | 17.82364 | -15.12942 | 34908 ft | 546 kts | 32° |
| 2026-05-08 00:54 | 17.88525 | -15.08284 | 34895 ft | 544 kts | 31° |
| 2026-05-08 00:54 | 17.94686 | -15.03624 | 34904 ft | 547 kts | 31° |
| 2026-05-08 00:55 | 18.00845 | -14.98962 | 34900 ft | 547 kts | 31° |
| 2026-05-08 00:55 | 18.06992 | -14.94304 | 34897 ft | 544 kts | 31° |
| 2026-05-08 00:56 | 18.13176 | -14.89614 | 34888 ft | 546 kts | 31° |
| 2026-05-08 00:56 | 18.19314 | -14.84954 | 34890 ft | 543 kts | 31° |
| 2026-05-08 00:57 | 18.25405 | -14.80327 | 34892 ft | 544 kts | 31° |
| 2026-05-08 00:57 | 18.31578 | -14.75633 | 34893 ft | 544 kts | 31° |
| 2026-05-08 00:58 | 18.37686 | -14.70983 | 34892 ft | 543 kts | 31° |
| 2026-05-08 00:58 | 18.43780 | -14.66341 | 34897 ft | 543 kts | 31° |
| 2026-05-08 00:59 | 18.49938 | -14.61646 | 34895 ft | 542 kts | 31° |
| 2026-05-08 00:59 | 18.56031 | -14.56996 | 34898 ft | 544 kts | 31° |
| 2026-05-08 01:00 | 18.62131 | -14.52336 | 34895 ft | 541 kts | 31° |
| 2026-05-08 01:00 | 18.68249 | -14.47659 | 34901 ft | 543 kts | 31° |
| 2026-05-08 01:01 | 18.74346 | -14.42994 | 34908 ft | 542 kts | 31° |
| 2026-05-08 01:01 | 18.80447 | -14.38321 | 34909 ft | 544 kts | 31° |
| 2026-05-08 01:02 | 18.86535 | -14.33653 | 34890 ft | 540 kts | 31° |
| 2026-05-08 01:02 | 18.92648 | -14.28962 | 34886 ft | 541 kts | 31° |
| 2026-05-08 01:03 | 18.98752 | -14.24273 | 34879 ft | 540 kts | 31° |
| 2026-05-08 01:03 | 19.04808 | -14.19619 | 34888 ft | 542 kts | 31° |
| 2026-05-08 01:04 | 19.10885 | -14.14942 | 34883 ft | 540 kts | 31° |
| 2026-05-08 01:04 | 19.16971 | -14.10255 | 34883 ft | 540 kts | 31° |
| 2026-05-08 01:05 | 19.23041 | -14.05575 | 34884 ft | 541 kts | 31° |
| 2026-05-08 01:05 | 19.29094 | -14.00904 | 34887 ft | 539 kts | 31° |
| 2026-05-08 01:06 | 19.35144 | -13.96232 | 34892 ft | 541 kts | 31° |
| 2026-05-08 01:06 | 19.41220 | -13.91535 | 34887 ft | 538 kts | 31° |
| 2026-05-08 01:07 | 19.47247 | -13.86871 | 34883 ft | 538 kts | 32° |
| 2026-05-08 01:07 | 19.53322 | -13.82166 | 34896 ft | 538 kts | 32° |
| 2026-05-08 01:08 | 19.59342 | -13.77498 | 34893 ft | 538 kts | 31° |
| 2026-05-08 01:08 | 19.65399 | -13.72798 | 34891 ft | 538 kts | 32° |
| 2026-05-08 01:09 | 19.71403 | -13.68133 | 34893 ft | 534 kts | 32° |
| 2026-05-08 01:09 | 19.77413 | -13.63463 | 34896 ft | 537 kts | 32° |
| 2026-05-08 01:10 | 19.83442 | -13.58770 | 34907 ft | 536 kts | 31° |
| 2026-05-08 01:10 | 19.89440 | -13.54097 | 34908 ft | 536 kts | 32° |
| 2026-05-08 01:11 | 19.95455 | -13.49408 | 34931 ft | 536 kts | 31° |
| 2026-05-08 01:11 | 20.01478 | -13.44707 | 34939 ft | 537 kts | 32° |
| 2026-05-08 01:12 | 20.07456 | -13.40036 | 34929 ft | 536 kts | 31° |
| 2026-05-08 01:12 | 20.13480 | -13.35325 | 34912 ft | 535 kts | 32° |
| 2026-05-08 01:13 | 20.19472 | -13.30635 | 34893 ft | 533 kts | 32° |
| 2026-05-08 01:13 | 20.25451 | -13.25950 | 34894 ft | 535 kts | 32° |
| 2026-05-08 01:14 | 20.31426 | -13.21263 | 34897 ft | 532 kts | 32° |
| 2026-05-08 01:14 | 20.37376 | -13.16592 | 34900 ft | 533 kts | 32° |
| 2026-05-08 01:15 | 20.43290 | -13.11944 | 34902 ft | 530 kts | 32° |
| 2026-05-08 01:15 | 20.49106 | -13.07330 | 34891 ft | 529 kts | 36° |
| 2026-05-08 01:16 | 20.54459 | -13.01839 | 34916 ft | 536 kts | 42° |
| 2026-05-08 01:16 | 20.59598 | -12.96272 | 34926 ft | 534 kts | 43° |
| 2026-05-08 01:17 | 20.64833 | -12.90593 | 34933 ft | 535 kts | 42° |
| 2026-05-08 01:17 | 20.70000 | -12.84982 | 34930 ft | 532 kts | 42° |
| 2026-05-08 01:18 | 20.75217 | -12.79312 | 34936 ft | 532 kts | 42° |
| 2026-05-08 01:18 | 20.80374 | -12.73700 | 34944 ft | 533 kts | 42° |
| 2026-05-08 01:19 | 20.85583 | -12.68026 | 34949 ft | 534 kts | 42° |
| 2026-05-08 01:19 | 20.90778 | -12.62362 | 34954 ft | 531 kts | 42° |
| 2026-05-08 01:20 | 20.95940 | -12.56728 | 34957 ft | 532 kts | 43° |
| 2026-05-08 01:20 | 21.01103 | -12.51086 | 34954 ft | 530 kts | 42° |
| 2026-05-08 01:21 | 21.06221 | -12.45489 | 34941 ft | 528 kts | 42° |
| 2026-05-08 01:21 | 21.11384 | -12.39836 | 34938 ft | 531 kts | 43° |
| 2026-05-08 01:22 | 21.16533 | -12.34192 | 34936 ft | 529 kts | 43° |
| 2026-05-08 01:22 | 21.21697 | -12.28526 | 34926 ft | 534 kts | 43° |
| 2026-05-08 01:23 | 21.26835 | -12.22881 | 34921 ft | 531 kts | 42° |
| 2026-05-08 01:23 | 21.31987 | -12.17217 | 34925 ft | 531 kts | 42° |
| 2026-05-08 01:24 | 21.37148 | -12.11535 | 34920 ft | 530 kts | 43° |
| 2026-05-08 01:24 | 21.42283 | -12.05876 | 34926 ft | 530 kts | 43° |
| 2026-05-08 01:25 | 21.47403 | -12.00228 | 34920 ft | 529 kts | 43° |
| 2026-05-08 01:25 | 21.52530 | -11.94566 | 34925 ft | 528 kts | 42° |
| 2026-05-08 01:26 | 21.57642 | -11.88917 | 34934 ft | 529 kts | 43° |
| 2026-05-08 01:26 | 21.62779 | -11.83257 | 34934 ft | 530 kts | 43° |
| 2026-05-08 01:27 | 21.67924 | -11.77583 | 34944 ft | 528 kts | 43° |
| 2026-05-08 01:27 | 21.73051 | -11.71923 | 34942 ft | 529 kts | 42° |
| 2026-05-08 01:28 | 21.78167 | -11.66267 | 34941 ft | 527 kts | 43° |
| 2026-05-08 01:28 | 21.83243 | -11.60650 | 34939 ft | 524 kts | 42° |
| 2026-05-08 01:29 | 21.88342 | -11.55003 | 34942 ft | 528 kts | 42° |
| 2026-05-08 01:29 | 21.93429 | -11.49361 | 34941 ft | 526 kts | 42° |
| 2026-05-08 01:30 | 21.98392 | -11.43851 | 34944 ft | 527 kts | 43° |
| 2026-05-08 01:30 | 22.03496 | -11.38178 | 34932 ft | 525 kts | 43° |
| 2026-05-08 01:31 | 22.08566 | -11.32536 | 34917 ft | 525 kts | 43° |
| 2026-05-08 01:31 | 22.13660 | -11.26862 | 34917 ft | 526 kts | 43° |
| 2026-05-08 01:32 | 22.18728 | -11.21210 | 34919 ft | 526 kts | 43° |
| 2026-05-08 01:32 | 22.23819 | -11.15526 | 34922 ft | 525 kts | 43° |
| 2026-05-08 01:33 | 22.28870 | -11.09882 | 34925 ft | 524 kts | 43° |
| 2026-05-08 01:33 | 22.33937 | -11.04212 | 34922 ft | 522 kts | 43° |
| 2026-05-08 01:34 | 22.38979 | -10.98566 | 34924 ft | 525 kts | 43° |
| 2026-05-08 01:34 | 22.44044 | -10.92885 | 34924 ft | 523 kts | 43° |
| 2026-05-08 01:35 | 22.49081 | -10.87231 | 34920 ft | 523 kts | 43° |
| 2026-05-08 01:35 | 22.54121 | -10.81566 | 34917 ft | 523 kts | 43° |
| 2026-05-08 01:36 | 22.59154 | -10.75904 | 34918 ft | 524 kts | 43° |
| 2026-05-08 01:36 | 22.64215 | -10.70202 | 34914 ft | 523 kts | 43° |
| 2026-05-08 01:37 | 22.69247 | -10.64529 | 34915 ft | 524 kts | 43° |
| 2026-05-08 01:37 | 22.74254 | -10.58876 | 34917 ft | 523 kts | 43° |
| 2026-05-08 01:38 | 22.79294 | -10.53179 | 34912 ft | 522 kts | 43° |
| 2026-05-08 01:38 | 22.84317 | -10.47496 | 34914 ft | 522 kts | 43° |
| 2026-05-08 01:39 | 22.89319 | -10.41830 | 34912 ft | 524 kts | 43° |
| 2026-05-08 01:39 | 22.94360 | -10.36111 | 34916 ft | 520 kts | 43° |
| 2026-05-08 01:40 | 22.99342 | -10.30454 | 34903 ft | 522 kts | 43° |
| 2026-05-08 01:40 | 23.04370 | -10.24738 | 34901 ft | 523 kts | 43° |
| 2026-05-08 01:41 | 23.09371 | -10.19046 | 34901 ft | 521 kts | 43° |
| 2026-05-08 01:41 | 23.14377 | -10.13342 | 34899 ft | 522 kts | 43° |
| 2026-05-08 01:42 | 23.19389 | -10.07625 | 34889 ft | 522 kts | 43° |
| 2026-05-08 01:42 | 23.24378 | -10.01926 | 34891 ft | 522 kts | 43° |
| 2026-05-08 01:43 | 23.29395 | -9.96190 | 34896 ft | 523 kts | 43° |
| 2026-05-08 01:43 | 23.34377 | -9.90486 | 34898 ft | 521 kts | 43° |
| 2026-05-08 01:44 | 23.39365 | -9.84769 | 34901 ft | 520 kts | 43° |
| 2026-05-08 01:44 | 23.44339 | -9.79063 | 34901 ft | 520 kts | 43° |
| 2026-05-08 01:45 | 23.49285 | -9.73380 | 34899 ft | 521 kts | 43° |
| 2026-05-08 01:45 | 23.54249 | -9.67671 | 34897 ft | 519 kts | 43° |
| 2026-05-08 01:46 | 23.59229 | -9.61937 | 34898 ft | 521 kts | 43° |
| 2026-05-08 01:46 | 23.64194 | -9.56212 | 34897 ft | 519 kts | 43° |
| 2026-05-08 01:47 | 23.69150 | -9.50492 | 34893 ft | 522 kts | 43° |
| 2026-05-08 01:47 | 23.74124 | -9.44744 | 34891 ft | 518 kts | 43° |
| 2026-05-08 01:48 | 23.81532 | -9.36171 | 34897 ft | 519 kts | 44° |
| 2026-05-08 01:48 | 23.86488 | -9.30427 | 34888 ft | 519 kts | 44° |
| 2026-05-08 01:49 | 23.91460 | -9.24658 | 34884 ft | 521 kts | 44° |
| 2026-05-08 01:49 | 23.96403 | -9.18915 | 34883 ft | 520 kts | 44° |
| 2026-05-08 01:50 | 24.01343 | -9.13168 | 34886 ft | 521 kts | 44° |
| 2026-05-08 01:50 | 24.06282 | -9.07416 | 34880 ft | 519 kts | 44° |
| 2026-05-08 01:51 | 24.11224 | -9.01654 | 34879 ft | 519 kts | 44° |
| 2026-05-08 01:51 | 24.16175 | -8.95874 | 34882 ft | 519 kts | 44° |
| 2026-05-08 01:52 | 24.21083 | -8.90137 | 34887 ft | 519 kts | 44° |
| 2026-05-08 01:52 | 24.26027 | -8.84351 | 34890 ft | 518 kts | 44° |
| 2026-05-08 01:53 | 24.30936 | -8.78599 | 34895 ft | 519 kts | 44° |
| 2026-05-08 01:53 | 24.35867 | -8.72813 | 34896 ft | 518 kts | 44° |
| 2026-05-08 01:54 | 24.40767 | -8.67058 | 34898 ft | 517 kts | 44° |
| 2026-05-08 01:54 | 24.45674 | -8.61287 | 34902 ft | 517 kts | 44° |
| 2026-05-08 01:55 | 24.50578 | -8.55512 | 34902 ft | 518 kts | 44° |
| 2026-05-08 01:55 | 24.55484 | -8.49728 | 34901 ft | 518 kts | 44° |
| 2026-05-08 01:56 | 24.60376 | -8.43952 | 34901 ft | 518 kts | 44° |
| 2026-05-08 01:56 | 24.65307 | -8.38125 | 34903 ft | 518 kts | 44° |
| 2026-05-08 01:57 | 24.70187 | -8.32349 | 34888 ft | 519 kts | 44° |
| 2026-05-08 01:57 | 24.75102 | -8.26527 | 34892 ft | 520 kts | 45° |
| 2026-05-08 01:58 | 24.80001 | -8.20714 | 34893 ft | 517 kts | 44° |
| 2026-05-08 01:58 | 24.84887 | -8.14910 | 34895 ft | 519 kts | 45° |
| 2026-05-08 01:59 | 24.89787 | -8.09083 | 34901 ft | 518 kts | 45° |
| 2026-05-08 01:59 | 24.94689 | -8.03245 | 34910 ft | 517 kts | 44° |
| 2026-05-08 02:00 | 24.99534 | -7.97469 | 34912 ft | 516 kts | 44° |
| 2026-05-08 02:00 | 25.04428 | -7.91626 | 34915 ft | 518 kts | 44° |
| 2026-05-08 02:01 | 25.09300 | -7.85803 | 34915 ft | 518 kts | 44° |
| 2026-05-08 02:01 | 25.14158 | -7.79989 | 34908 ft | 518 kts | 44° |
| 2026-05-08 02:02 | 25.19035 | -7.74144 | 34908 ft | 518 kts | 44° |
| 2026-05-08 02:02 | 25.23877 | -7.68330 | 34905 ft | 518 kts | 44° |
| 2026-05-08 02:03 | 25.28775 | -7.62442 | 34907 ft | 518 kts | 44° |
| 2026-05-08 02:03 | 25.33594 | -7.56642 | 34906 ft | 516 kts | 44° |
| 2026-05-08 02:04 | 25.38468 | -7.50768 | 34911 ft | 517 kts | 44° |
| 2026-05-08 02:04 | 25.43343 | -7.44886 | 34910 ft | 518 kts | 44° |
| 2026-05-08 02:05 | 25.48202 | -7.39014 | 34915 ft | 518 kts | 44° |
| 2026-05-08 02:05 | 25.53046 | -7.33155 | 34904 ft | 518 kts | 45° |
| 2026-05-08 02:06 | 25.57878 | -7.27302 | 34902 ft | 517 kts | 44° |
| 2026-05-08 02:06 | 25.62744 | -7.21404 | 34905 ft | 518 kts | 44° |
| 2026-05-08 02:07 | 25.67575 | -7.15540 | 34908 ft | 518 kts | 44° |
| 2026-05-08 02:07 | 25.72431 | -7.09639 | 34913 ft | 517 kts | 44° |
| 2026-05-08 02:08 | 25.77293 | -7.03722 | 34913 ft | 518 kts | 45° |
| 2026-05-08 02:08 | 25.82124 | -6.97834 | 34916 ft | 518 kts | 45° |
| 2026-05-08 02:09 | 25.86959 | -6.91935 | 34920 ft | 516 kts | 44° |
| 2026-05-08 02:09 | 25.91788 | -6.86036 | 34918 ft | 516 kts | 44° |
| 2026-05-08 02:10 | 25.96628 | -6.80115 | 34922 ft | 516 kts | 44° |
| 2026-05-08 02:10 | 26.01434 | -6.74228 | 34926 ft | 516 kts | 44° |
| 2026-05-08 02:11 | 26.06279 | -6.68284 | 34916 ft | 518 kts | 44° |
| 2026-05-08 02:11 | 26.11101 | -6.62363 | 34909 ft | 519 kts | 44° |
| 2026-05-08 02:12 | 26.16118 | -6.56680 | 34901 ft | 515 kts | 40° |
| 2026-05-08 02:12 | 26.21277 | -6.51143 | 34908 ft | 516 kts | 40° |
| 2026-05-08 02:13 | 26.26424 | -6.45583 | 34904 ft | 515 kts | 40° |
| 2026-05-08 02:13 | 26.31591 | -6.39978 | 34910 ft | 518 kts | 40° |
| 2026-05-08 02:14 | 26.36726 | -6.34389 | 34908 ft | 516 kts | 40° |
| 2026-05-08 02:14 | 26.41856 | -6.28793 | 34899 ft | 517 kts | 40° |
| 2026-05-08 02:15 | 26.46978 | -6.23196 | 34901 ft | 517 kts | 40° |
| 2026-05-08 02:15 | 26.52094 | -6.17596 | 34897 ft | 515 kts | 40° |
| 2026-05-08 02:16 | 26.57228 | -6.11968 | 34895 ft | 516 kts | 40° |
| 2026-05-08 02:16 | 26.62352 | -6.06344 | 34895 ft | 517 kts | 40° |
| 2026-05-08 02:17 | 26.67455 | -6.00734 | 34892 ft | 516 kts | 40° |
| 2026-05-08 02:17 | 26.72566 | -5.95107 | 34886 ft | 516 kts | 40° |
| 2026-05-08 02:18 | 26.77696 | -5.89452 | 34882 ft | 515 kts | 40° |
| 2026-05-08 02:18 | 26.82790 | -5.83831 | 34881 ft | 517 kts | 40° |
| 2026-05-08 02:19 | 26.87899 | -5.78184 | 34880 ft | 516 kts | 40° |
| 2026-05-08 02:19 | 26.93003 | -5.72536 | 34885 ft | 516 kts | 40° |
| 2026-05-08 02:20 | 26.98140 | -5.66843 | 34896 ft | 516 kts | 40° |
| 2026-05-08 02:20 | 27.03239 | -5.61185 | 34907 ft | 517 kts | 40° |
| 2026-05-08 02:21 | 27.08330 | -5.55528 | 34907 ft | 518 kts | 40° |
| 2026-05-08 02:21 | 27.13438 | -5.49843 | 34909 ft | 515 kts | 40° |
| 2026-05-08 02:22 | 27.18509 | -5.44193 | 34906 ft | 515 kts | 40° |
| 2026-05-08 02:22 | 27.23611 | -5.38501 | 34904 ft | 516 kts | 40° |
| 2026-05-08 02:23 | 27.28668 | -5.32850 | 34887 ft | 514 kts | 40° |
| 2026-05-08 02:23 | 27.33761 | -5.27153 | 34889 ft | 514 kts | 40° |
| 2026-05-08 02:24 | 27.38829 | -5.21475 | 34884 ft | 514 kts | 40° |
| 2026-05-08 02:24 | 27.43923 | -5.15760 | 34875 ft | 515 kts | 40° |
| 2026-05-08 02:25 | 27.48967 | -5.10093 | 34872 ft | 513 kts | 40° |
| 2026-05-08 02:25 | 27.54051 | -5.04375 | 34876 ft | 516 kts | 40° |
| 2026-05-08 02:26 | 27.59113 | -4.98671 | 34874 ft | 513 kts | 40° |
| 2026-05-08 02:26 | 27.64182 | -4.92954 | 34878 ft | 516 kts | 40° |
| 2026-05-08 02:27 | 27.69224 | -4.87258 | 34886 ft | 517 kts | 40° |
| 2026-05-08 02:27 | 27.74308 | -4.81507 | 34884 ft | 515 kts | 40° |
| 2026-05-08 02:28 | 27.79338 | -4.75808 | 34891 ft | 513 kts | 40° |
| 2026-05-08 02:28 | 27.84394 | -4.70073 | 34897 ft | 514 kts | 40° |
| 2026-05-08 02:29 | 27.89425 | -4.64358 | 34898 ft | 513 kts | 40° |
| 2026-05-08 02:29 | 27.94439 | -4.58655 | 34898 ft | 513 kts | 41° |
| 2026-05-08 02:30 | 27.99486 | -4.52906 | 34899 ft | 514 kts | 41° |
| 2026-05-08 02:30 | 28.04536 | -4.47182 | 34900 ft | 515 kts | 40° |
| 2026-05-08 02:31 | 28.09652 | -4.41527 | 34905 ft | 513 kts | 39° |
| 2026-05-08 02:31 | 28.14725 | -4.35913 | 34898 ft | 512 kts | 39° |
| 2026-05-08 02:32 | 28.19832 | -4.30248 | 34886 ft | 515 kts | 40° |
| 2026-05-08 02:32 | 28.24941 | -4.24570 | 34889 ft | 514 kts | 40° |
| 2026-05-08 02:33 | 28.30052 | -4.18881 | 34880 ft | 514 kts | 40° |
| 2026-05-08 02:33 | 28.35140 | -4.13208 | 34872 ft | 515 kts | 40° |
| 2026-05-08 02:34 | 28.40239 | -4.07513 | 34876 ft | 512 kts | 40° |
| 2026-05-08 02:34 | 28.45306 | -4.01847 | 34878 ft | 512 kts | 40° |
| 2026-05-08 02:35 | 28.50396 | -3.96147 | 34882 ft | 513 kts | 40° |
| 2026-05-08 02:35 | 28.55471 | -3.90455 | 34887 ft | 511 kts | 40° |
| 2026-05-08 02:36 | 28.60542 | -3.84761 | 34888 ft | 514 kts | 40° |
| 2026-05-08 02:36 | 28.65625 | -3.79043 | 34892 ft | 513 kts | 40° |
| 2026-05-08 02:37 | 28.70707 | -3.73319 | 34891 ft | 514 kts | 40° |
| 2026-05-08 02:37 | 28.75767 | -3.67610 | 34896 ft | 513 kts | 40° |
| 2026-05-08 02:38 | 28.80853 | -3.61865 | 34893 ft | 514 kts | 40° |
| 2026-05-08 02:38 | 28.85879 | -3.56179 | 34889 ft | 513 kts | 40° |
| 2026-05-08 02:39 | 28.90941 | -3.50444 | 34885 ft | 513 kts | 40° |
| 2026-05-08 02:39 | 28.95986 | -3.44720 | 34885 ft | 511 kts | 40° |
| 2026-05-08 02:40 | 29.01029 | -3.38991 | 34888 ft | 511 kts | 40° |
| 2026-05-08 02:40 | 29.06070 | -3.33254 | 34882 ft | 514 kts | 40° |
| 2026-05-08 02:41 | 29.11148 | -3.27468 | 34881 ft | 512 kts | 41° |
| 2026-05-08 02:41 | 29.16150 | -3.21759 | 34884 ft | 510 kts | 40° |
| 2026-05-08 02:42 | 29.21189 | -3.16000 | 34881 ft | 511 kts | 40° |
| 2026-05-08 02:42 | 29.26200 | -3.10269 | 34881 ft | 510 kts | 40° |
| 2026-05-08 02:43 | 29.31241 | -3.04559 | 34880 ft | 511 kts | 40° |
| 2026-05-08 02:43 | 29.36308 | -2.98815 | 34880 ft | 512 kts | 40° |
| 2026-05-08 02:44 | 29.41353 | -2.93086 | 34883 ft | 514 kts | 40° |
| 2026-05-08 02:44 | 29.46434 | -2.87304 | 34888 ft | 512 kts | 40° |
| 2026-05-08 02:45 | 29.51451 | -2.81588 | 34893 ft | 512 kts | 40° |
| 2026-05-08 02:45 | 29.56508 | -2.75815 | 34896 ft | 511 kts | 40° |
| 2026-05-08 02:46 | 29.61544 | -2.70059 | 34898 ft | 510 kts | 40° |
| 2026-05-08 02:46 | 29.66554 | -2.64324 | 34903 ft | 511 kts | 40° |
| 2026-05-08 02:47 | 29.71583 | -2.58560 | 34903 ft | 512 kts | 40° |
| 2026-05-08 02:47 | 29.76630 | -2.52764 | 34905 ft | 511 kts | 40° |
| 2026-05-08 02:48 | 29.81648 | -2.46994 | 34900 ft | 511 kts | 40° |
| 2026-05-08 02:48 | 29.86659 | -2.41223 | 34895 ft | 511 kts | 40° |
| 2026-05-08 02:49 | 29.91660 | -2.35455 | 34897 ft | 510 kts | 40° |
| 2026-05-08 02:49 | 29.96681 | -2.29655 | 34892 ft | 511 kts | 41° |
| 2026-05-08 02:50 | 30.01711 | -2.23858 | 34891 ft | 509 kts | 38° |
| 2026-05-08 02:50 | 30.07183 | -2.18814 | 34895 ft | 506 kts | 32° |
| 2026-05-08 02:51 | 30.12813 | -2.13877 | 34891 ft | 506 kts | 32° |
| 2026-05-08 02:51 | 30.18416 | -2.08953 | 34884 ft | 507 kts | 32° |
| 2026-05-08 02:52 | 30.24018 | -2.04017 | 34882 ft | 506 kts | 32° |
| 2026-05-08 02:52 | 30.29578 | -1.99110 | 34886 ft | 506 kts | 32° |
| 2026-05-08 02:53 | 30.35153 | -1.94180 | 34887 ft | 505 kts | 32° |
| 2026-05-08 02:53 | 30.40762 | -1.89214 | 34893 ft | 506 kts | 32° |
| 2026-05-08 02:54 | 30.46314 | -1.84290 | 34897 ft | 504 kts | 32° |
| 2026-05-08 02:54 | 30.51900 | -1.79329 | 34902 ft | 505 kts | 32° |
| 2026-05-08 02:55 | 30.60241 | -1.71907 | 34899 ft | 504 kts | 32° |
| 2026-05-08 02:56 | 30.65804 | -1.66947 | 34897 ft | 504 kts | 32° |
| 2026-05-08 02:56 | 30.71331 | -1.62013 | 34898 ft | 505 kts | 33° |
| 2026-05-08 02:57 | 30.76902 | -1.57031 | 34898 ft | 505 kts | 33° |
| 2026-05-08 02:57 | 30.82472 | -1.52042 | 34902 ft | 504 kts | 32° |
| 2026-05-08 02:58 | 30.88015 | -1.47070 | 34908 ft | 503 kts | 32° |
| 2026-05-08 02:58 | 30.93547 | -1.42102 | 34910 ft | 502 kts | 32° |
| 2026-05-08 02:59 | 30.99109 | -1.37099 | 34911 ft | 504 kts | 32° |
| 2026-05-08 02:59 | 31.04643 | -1.32194 | 34905 ft | 503 kts | 33° |
| 2026-05-08 03:00 | 31.10256 | -1.27265 | 34906 ft | 505 kts | 33° |
| 2026-05-08 03:00 | 31.15818 | -1.22368 | 34911 ft | 505 kts | 33° |
| 2026-05-08 03:01 | 31.21420 | -1.17427 | 34907 ft | 502 kts | 33° |
| 2026-05-08 03:01 | 31.26969 | -1.12524 | 34908 ft | 501 kts | 33° |
| 2026-05-08 03:02 | 31.32535 | -1.07598 | 34916 ft | 502 kts | 33° |
| 2026-05-08 03:02 | 31.38085 | -1.02677 | 34927 ft | 501 kts | 33° |
| 2026-05-08 03:03 | 31.43635 | -0.97751 | 34948 ft | 505 kts | 33° |
| 2026-05-08 03:03 | 31.49225 | -0.92779 | 34942 ft | 504 kts | 33° |
| 2026-05-08 03:04 | 31.54816 | -0.87800 | 34944 ft | 505 kts | 33° |
| 2026-05-08 03:04 | 31.60376 | -0.82839 | 34946 ft | 504 kts | 32° |
| 2026-05-08 03:05 | 31.65958 | -0.77853 | 34946 ft | 504 kts | 33° |
| 2026-05-08 03:05 | 31.71541 | -0.72857 | 34944 ft | 504 kts | 32° |
| 2026-05-08 03:06 | 31.77117 | -0.67860 | 34945 ft | 507 kts | 32° |
| 2026-05-08 03:06 | 31.82692 | -0.62855 | 34952 ft | 506 kts | 32° |
| 2026-05-08 03:07 | 31.88279 | -0.57832 | 34949 ft | 505 kts | 32° |
| 2026-05-08 03:07 | 31.93863 | -0.52879 | 34941 ft | 505 kts | 32° |
| 2026-05-08 03:08 | 31.99468 | -0.47920 | 34931 ft | 503 kts | 32° |
| 2026-05-08 03:08 | 32.05074 | -0.42952 | 34936 ft | 507 kts | 32° |
| 2026-05-08 03:09 | 32.10703 | -0.37952 | 34941 ft | 505 kts | 32° |
| 2026-05-08 03:09 | 32.16334 | -0.32942 | 34932 ft | 509 kts | 32° |
| 2026-05-08 03:10 | 32.21970 | -0.27918 | 34938 ft | 505 kts | 33° |
| 2026-05-08 03:10 | 32.27559 | -0.22928 | 34946 ft | 506 kts | 32° |
| 2026-05-08 03:11 | 32.33150 | -0.17929 | 34947 ft | 506 kts | 32° |
| 2026-05-08 03:11 | 32.38790 | -0.12878 | 34952 ft | 507 kts | 32° |
| 2026-05-08 03:12 | 32.44374 | -0.07869 | 34952 ft | 507 kts | 32° |
| 2026-05-08 03:12 | 32.50000 | -0.02814 | 34954 ft | 508 kts | 32° |
| 2026-05-08 03:13 | 32.55618 | 0.02242 | 34958 ft | 508 kts | 32° |
| 2026-05-08 03:13 | 32.61254 | 0.07323 | 34962 ft | 508 kts | 32° |
| 2026-05-08 03:14 | 32.66869 | 0.12392 | 34964 ft | 508 kts | 32° |
| 2026-05-08 03:14 | 32.72463 | 0.17450 | 34966 ft | 510 kts | 32° |
| 2026-05-08 03:15 | 32.78072 | 0.22532 | 34969 ft | 507 kts | 32° |
| 2026-05-08 03:15 | 32.83706 | 0.27643 | 34973 ft | 507 kts | 32° |
| 2026-05-08 03:16 | 32.89293 | 0.32721 | 34984 ft | 507 kts | 32° |
| 2026-05-08 03:16 | 32.94901 | 0.37825 | 34991 ft | 507 kts | 32° |
| 2026-05-08 03:17 | 33.00486 | 0.42917 | 34994 ft | 507 kts | 32° |
| 2026-05-08 03:17 | 33.06069 | 0.48016 | 34993 ft | 507 kts | 32° |
| 2026-05-08 03:18 | 33.11638 | 0.53110 | 34994 ft | 507 kts | 32° |
| 2026-05-08 03:18 | 33.17209 | 0.58215 | 34997 ft | 505 kts | 32° |
| 2026-05-08 03:19 | 33.22771 | 0.63318 | 35002 ft | 506 kts | 32° |
| 2026-05-08 03:19 | 33.28341 | 0.68439 | 34997 ft | 506 kts | 33° |
| 2026-05-08 03:20 | 33.33901 | 0.73557 | 35001 ft | 506 kts | 33° |
| 2026-05-08 03:20 | 33.39446 | 0.78673 | 35014 ft | 502 kts | 33° |
| 2026-05-08 03:21 | 33.45021 | 0.83823 | 35026 ft | 505 kts | 33° |
| 2026-05-08 03:21 | 33.50530 | 0.88921 | 35020 ft | 504 kts | 33° |
| 2026-05-08 03:22 | 33.56073 | 0.94059 | 35007 ft | 504 kts | 33° |
| 2026-05-08 03:22 | 33.61608 | 0.99197 | 34981 ft | 504 kts | 33° |
| 2026-05-08 03:23 | 33.67161 | 1.04352 | 34949 ft | 503 kts | 31° |
| 2026-05-08 03:23 | 33.73226 | 1.08246 | 34923 ft | 488 kts | 12° |
| 2026-05-08 03:24 | 33.79722 | 1.10199 | 34924 ft | 484 kts | 6° |
| 2026-05-08 03:24 | 33.86277 | 1.11915 | 34964 ft | 482 kts | 6° |
| 2026-05-08 03:25 | 33.92829 | 1.13631 | 34966 ft | 482 kts | 6° |
| 2026-05-08 03:25 | 33.99410 | 1.15357 | 34994 ft | 481 kts | 5° |
| 2026-05-08 03:26 | 34.05957 | 1.17077 | 34993 ft | 481 kts | 6° |
| 2026-05-08 03:26 | 34.12479 | 1.18793 | 34998 ft | 483 kts | 5° |
| 2026-05-08 03:27 | 34.19052 | 1.20525 | 34995 ft | 484 kts | 6° |
| 2026-05-08 03:27 | 34.25643 | 1.22266 | 34992 ft | 483 kts | 5° |
| 2026-05-08 03:28 | 34.32213 | 1.24003 | 34994 ft | 484 kts | 6° |
| 2026-05-08 03:28 | 34.38813 | 1.25751 | 34987 ft | 484 kts | 6° |
| 2026-05-08 03:29 | 34.45399 | 1.27498 | 34984 ft | 484 kts | 6° |
| 2026-05-08 03:29 | 34.51994 | 1.29250 | 34985 ft | 485 kts | 5° |
| 2026-05-08 03:30 | 34.61866 | 1.31879 | 34983 ft | 485 kts | 6° |
| 2026-05-08 03:31 | 34.75036 | 1.35395 | 34990 ft | 486 kts | 6° |
| 2026-05-08 03:32 | 34.84957 | 1.38051 | 34991 ft | 487 kts | 5° |
| 2026-05-08 03:32 | 34.91569 | 1.39826 | 34988 ft | 487 kts | 5° |
| 2026-05-08 03:33 | 34.98202 | 1.41608 | 34987 ft | 487 kts | 6° |
| 2026-05-08 03:33 | 35.04836 | 1.43394 | 34994 ft | 488 kts | 5° |
| 2026-05-08 03:34 | 35.11473 | 1.45183 | 34995 ft | 490 kts | 6° |
| 2026-05-08 03:34 | 35.18084 | 1.46970 | 34980 ft | 488 kts | 5° |
| 2026-05-08 03:35 | 35.24714 | 1.48764 | 34981 ft | 488 kts | 5° |
| 2026-05-08 03:35 | 35.34091 | 1.52382 | 34973 ft | 504 kts | 23° |
| 2026-05-08 03:36 | 35.37067 | 1.54707 | 34976 ft | 511 kts | 32° |
| 2026-05-08 03:36 | 35.42265 | 1.60710 | 34985 ft | 517 kts | 42° |
| 2026-05-08 03:37 | 35.47236 | 1.67018 | 34978 ft | 516 kts | 42° |
| 2026-05-08 03:37 | 35.52275 | 1.73395 | 35033 ft | 522 kts | 42° |
| 2026-05-08 03:37 | 35.54781 | 1.76561 | 35523 ft | 523 kts | 42° |
| 2026-05-08 03:38 | 35.57321 | 1.79776 | 36317 ft | 518 kts | 41° |
| 2026-05-08 03:38 | 35.59806 | 1.82920 | 36934 ft | 515 kts | 41° |
| 2026-05-08 03:38 | 35.62310 | 1.86086 | 36975 ft | 519 kts | 41° |
| 2026-05-08 03:39 | 35.67300 | 1.92404 | 36980 ft | 515 kts | 41° |
| 2026-05-08 03:39 | 35.72356 | 1.98669 | 36979 ft | 516 kts | 40° |
| 2026-05-08 03:40 | 35.77428 | 2.04951 | 36978 ft | 515 kts | 40° |
| 2026-05-08 03:40 | 35.82453 | 2.11189 | 36983 ft | 516 kts | 40° |
| 2026-05-08 03:41 | 35.87465 | 2.17426 | 36980 ft | 514 kts | 40° |
| 2026-05-08 03:41 | 35.92511 | 2.23715 | 36978 ft | 515 kts | 40° |
| 2026-05-08 03:42 | 35.97525 | 2.29981 | 36980 ft | 514 kts | 40° |
| 2026-05-08 03:42 | 36.02551 | 2.36272 | 36981 ft | 516 kts | 40° |
| 2026-05-08 03:43 | 36.07560 | 2.42555 | 36978 ft | 514 kts | 40° |
| 2026-05-08 03:43 | 36.12563 | 2.48842 | 36975 ft | 513 kts | 40° |
| 2026-05-08 03:44 | 36.17550 | 2.55120 | 36969 ft | 514 kts | 40° |
| 2026-05-08 03:44 | 36.22571 | 2.61455 | 36975 ft | 515 kts | 40° |
| 2026-05-08 03:45 | 36.27527 | 2.67750 | 36953 ft | 512 kts | 41° |
| 2026-05-08 03:45 | 36.32492 | 2.74134 | 36953 ft | 513 kts | 41° |
| 2026-05-08 03:46 | 36.37426 | 2.80488 | 36955 ft | 514 kts | 41° |
| 2026-05-08 03:46 | 36.42379 | 2.86876 | 36955 ft | 512 kts | 41° |
| 2026-05-08 03:47 | 36.47304 | 2.93239 | 36957 ft | 513 kts | 41° |
| 2026-05-08 03:47 | 36.52246 | 2.99637 | 36953 ft | 514 kts | 41° |
| 2026-05-08 03:48 | 36.57204 | 3.06068 | 36958 ft | 514 kts | 41° |
| 2026-05-08 03:48 | 36.62132 | 3.12473 | 36956 ft | 514 kts | 41° |
| 2026-05-08 03:49 | 36.66966 | 3.18974 | 36946 ft | 517 kts | 48° |
| 2026-05-08 03:49 | 36.70554 | 3.26789 | 36970 ft | 527 kts | 65° |
| 2026-05-08 03:50 | 36.73114 | 3.35286 | 36963 ft | 525 kts | 67° |
| 2026-05-08 03:50 | 36.75629 | 3.43848 | 36962 ft | 527 kts | 67° |
| 2026-05-08 03:51 | 36.78194 | 3.52307 | 36944 ft | 522 kts | 61° |
| 2026-05-08 03:51 | 36.82140 | 3.59870 | 36953 ft | 513 kts | 42° |
| 2026-05-08 03:52 | 36.87149 | 3.66075 | 36951 ft | 510 kts | 38° |
| 2026-05-08 03:52 | 36.92263 | 3.72189 | 36935 ft | 509 kts | 38° |
| 2026-05-08 03:53 | 36.97358 | 3.78276 | 36929 ft | 507 kts | 38° |
| 2026-05-08 03:53 | 37.02463 | 3.84376 | 36930 ft | 509 kts | 38° |
| 2026-05-08 03:54 | 37.07585 | 3.90505 | 36932 ft | 509 kts | 37° |
| 2026-05-08 03:54 | 37.12709 | 3.96555 | 36929 ft | 508 kts | 37° |
| 2026-05-08 03:55 | 37.17838 | 4.02610 | 36931 ft | 507 kts | 37° |
| 2026-05-08 03:55 | 37.22945 | 4.08652 | 36933 ft | 507 kts | 37° |
| 2026-05-08 03:56 | 37.28073 | 4.14733 | 36938 ft | 506 kts | 37° |
| 2026-05-08 03:56 | 37.33177 | 4.20795 | 36935 ft | 508 kts | 37° |
| 2026-05-08 03:57 | 37.38272 | 4.26863 | 36941 ft | 505 kts | 37° |
| 2026-05-08 03:57 | 37.43368 | 4.32941 | 36938 ft | 506 kts | 37° |
| 2026-05-08 03:58 | 37.48464 | 4.39032 | 36943 ft | 506 kts | 37° |
| 2026-05-08 03:58 | 37.53546 | 4.45119 | 36944 ft | 504 kts | 37° |
| 2026-05-08 03:59 | 37.58629 | 4.51218 | 36941 ft | 506 kts | 37° |
| 2026-05-08 03:59 | 37.63706 | 4.57323 | 36946 ft | 506 kts | 37° |
| 2026-05-08 04:00 | 37.68774 | 4.63431 | 36939 ft | 505 kts | 37° |
| 2026-05-08 04:00 | 37.73833 | 4.69538 | 36931 ft | 504 kts | 37° |
| 2026-05-08 04:01 | 37.78910 | 4.75677 | 36932 ft | 506 kts | 37° |
| 2026-05-08 04:01 | 37.83989 | 4.81835 | 36925 ft | 506 kts | 37° |
| 2026-05-08 04:02 | 37.89058 | 4.87993 | 36924 ft | 503 kts | 37° |
| 2026-05-08 04:02 | 37.94080 | 4.94104 | 36930 ft | 503 kts | 37° |
| 2026-05-08 04:03 | 37.99141 | 5.00274 | 36927 ft | 503 kts | 37° |
| 2026-05-08 04:03 | 38.04202 | 5.06418 | 36758 ft | 503 kts | 37° |
| 2026-05-08 04:03 | 38.06740 | 5.09498 | 36941 ft | 506 kts | 37° |
| 2026-05-08 04:04 | 38.11813 | 5.15667 | 36938 ft | 506 kts | 37° |
| 2026-05-08 04:04 | 38.16906 | 5.21874 | 36941 ft | 506 kts | 37° |
| 2026-05-08 04:05 | 38.21975 | 5.28064 | 36946 ft | 508 kts | 37° |
| 2026-05-08 04:05 | 38.27044 | 5.34270 | 36948 ft | 507 kts | 37° |
| 2026-05-08 04:06 | 38.32117 | 5.40491 | 36951 ft | 508 kts | 37° |
| 2026-05-08 04:06 | 38.37205 | 5.46743 | 36950 ft | 508 kts | 37° |
| 2026-05-08 04:07 | 38.42271 | 5.52982 | 36952 ft | 507 kts | 37° |
| 2026-05-08 04:07 | 38.47335 | 5.59232 | 36954 ft | 508 kts | 37° |
| 2026-05-08 04:08 | 38.52375 | 5.65466 | 36954 ft | 506 kts | 37° |
| 2026-05-08 04:08 | 38.57461 | 5.71765 | 36940 ft | 510 kts | 37° |
| 2026-05-08 04:09 | 38.62544 | 5.78078 | 36943 ft | 510 kts | 37° |
| 2026-05-08 04:09 | 38.67627 | 5.84402 | 36947 ft | 511 kts | 38° |
| 2026-05-08 04:10 | 38.72672 | 5.90694 | 36952 ft | 511 kts | 37° |
| 2026-05-08 04:10 | 38.77749 | 5.97039 | 36952 ft | 509 kts | 37° |
| 2026-05-08 04:11 | 38.82807 | 6.03372 | 36948 ft | 510 kts | 37° |
| 2026-05-08 04:11 | 38.87888 | 6.09748 | 36946 ft | 509 kts | 37° |
| 2026-05-08 04:12 | 38.92931 | 6.16089 | 36947 ft | 509 kts | 37° |
| 2026-05-08 04:12 | 38.97993 | 6.22466 | 36952 ft | 508 kts | 37° |
| 2026-05-08 04:13 | 39.03550 | 6.27761 | 36959 ft | 495 kts | 23° |
| 2026-05-08 04:13 | 39.09451 | 6.32295 | 36944 ft | 494 kts | 22° |
| 2026-05-08 04:14 | 39.15301 | 6.36792 | 36956 ft | 490 kts | 22° |
| 2026-05-08 04:14 | 39.21160 | 6.41306 | 36954 ft | 493 kts | 22° |
| 2026-05-08 04:15 | 39.27062 | 6.45868 | 36954 ft | 494 kts | 22° |
| 2026-05-08 04:15 | 39.32956 | 6.50436 | 36954 ft | 491 kts | 23° |
| 2026-05-08 04:16 | 39.38789 | 6.54966 | 36960 ft | 491 kts | 23° |
| 2026-05-08 04:16 | 39.44669 | 6.59541 | 36961 ft | 493 kts | 23° |
| 2026-05-08 04:17 | 39.50521 | 6.64105 | 36962 ft | 493 kts | 23° |
| 2026-05-08 04:17 | 39.56395 | 6.68696 | 36947 ft | 491 kts | 24° |
| 2026-05-08 04:18 | 39.62217 | 6.73254 | 36948 ft | 491 kts | 24° |
| 2026-05-08 04:18 | 39.68089 | 6.77858 | 36951 ft | 494 kts | 24° |
| 2026-05-08 04:19 | 39.73920 | 6.82444 | 36949 ft | 495 kts | 24° |
| 2026-05-08 04:19 | 39.79837 | 6.87104 | 36950 ft | 494 kts | 24° |
| 2026-05-08 04:20 | 39.85664 | 6.91703 | 36948 ft | 493 kts | 24° |
| 2026-05-08 04:20 | 39.91528 | 6.96341 | 36952 ft | 493 kts | 24° |
| 2026-05-08 04:21 | 39.97415 | 7.01006 | 36954 ft | 496 kts | 25° |
| 2026-05-08 04:21 | 40.03255 | 7.05644 | 36971 ft | 495 kts | 25° |
| 2026-05-08 04:22 | 40.09131 | 7.10321 | 36971 ft | 492 kts | 25° |
| 2026-05-08 04:22 | 40.14975 | 7.14980 | 36953 ft | 494 kts | 25° |
| 2026-05-08 04:23 | 40.20801 | 7.19635 | 36942 ft | 494 kts | 25° |
| 2026-05-08 04:23 | 40.26652 | 7.24321 | 36946 ft | 491 kts | 25° |
| 2026-05-08 04:24 | 40.32458 | 7.28976 | 36947 ft | 495 kts | 25° |
| 2026-05-08 04:24 | 40.38314 | 7.33684 | 36955 ft | 496 kts | 25° |
| 2026-05-08 04:25 | 40.44164 | 7.38398 | 36964 ft | 494 kts | 25° |
| 2026-05-08 04:25 | 40.49848 | 7.43495 | 36959 ft | 502 kts | 36° |
| 2026-05-08 04:26 | 40.54382 | 7.50573 | 36955 ft | 512 kts | 55° |
| 2026-05-08 04:26 | 40.57164 | 7.59244 | 36957 ft | 517 kts | 75° |
| 2026-05-08 04:27 | 40.58207 | 7.68594 | 36950 ft | 522 kts | 83° |
| 2026-05-08 04:27 | 40.58989 | 7.78015 | 36951 ft | 517 kts | 83° |
| 2026-05-08 04:28 | 40.59764 | 7.87343 | 36946 ft | 517 kts | 83° |
| 2026-05-08 04:28 | 40.60545 | 7.96747 | 36953 ft | 515 kts | 84° |
| 2026-05-08 04:29 | 40.61315 | 8.06067 | 36958 ft | 517 kts | 83° |
| 2026-05-08 04:29 | 40.62084 | 8.15419 | 36962 ft | 515 kts | 84° |
| 2026-05-08 04:30 | 40.63163 | 8.24679 | 36965 ft | 514 kts | 73° |
| 2026-05-08 04:30 | 40.65689 | 8.33460 | 36967 ft | 515 kts | 66° |
| 2026-05-08 04:31 | 40.68429 | 8.42149 | 36961 ft | 512 kts | 66° |
| 2026-05-08 04:31 | 40.71139 | 8.50763 | 36960 ft | 511 kts | 66° |
| 2026-05-08 04:32 | 40.73851 | 8.59412 | 36962 ft | 512 kts | 65° |
| 2026-05-08 04:32 | 40.76568 | 8.68103 | 36952 ft | 512 kts | 66° |
| 2026-05-08 04:33 | 40.79261 | 8.76744 | 36953 ft | 509 kts | 66° |
| 2026-05-08 04:33 | 40.81928 | 8.85331 | 36953 ft | 509 kts | 67° |
| 2026-05-08 04:34 | 40.84609 | 8.93988 | 36952 ft | 508 kts | 67° |
| 2026-05-08 04:34 | 40.87272 | 9.02619 | 36954 ft | 509 kts | 67° |
| 2026-05-08 04:35 | 40.89920 | 9.11225 | 36958 ft | 507 kts | 67° |
| 2026-05-08 04:35 | 40.92557 | 9.19825 | 36954 ft | 507 kts | 67° |
| 2026-05-08 04:36 | 40.95203 | 9.28482 | 36958 ft | 506 kts | 67° |
| 2026-05-08 04:36 | 40.97825 | 9.37088 | 36956 ft | 507 kts | 67° |
| 2026-05-08 04:37 | 41.00442 | 9.45706 | 36955 ft | 505 kts | 68° |
| 2026-05-08 04:37 | 41.03044 | 9.54302 | 36946 ft | 505 kts | 68° |
| 2026-05-08 04:38 | 41.05642 | 9.62911 | 36941 ft | 503 kts | 68° |
| 2026-05-08 04:38 | 41.08215 | 9.71469 | 36923 ft | 502 kts | 68° |
| 2026-05-08 04:39 | 41.10792 | 9.80066 | 36926 ft | 500 kts | 69° |
| 2026-05-08 04:39 | 41.13343 | 9.88605 | 36923 ft | 501 kts | 68° |
| 2026-05-08 04:40 | 41.15899 | 9.97187 | 36912 ft | 500 kts | 69° |
| 2026-05-08 04:40 | 41.18432 | 10.05719 | 36914 ft | 501 kts | 69° |
| 2026-05-08 04:41 | 41.20986 | 10.14352 | 36918 ft | 501 kts | 69° |
| 2026-05-08 04:41 | 41.23513 | 10.22922 | 36880 ft | 498 kts | 69° |
| 2026-05-08 04:42 | 41.24763 | 10.27170 | 36280 ft | 498 kts | 69° |
| 2026-05-08 04:42 | 41.26019 | 10.31447 | 35552 ft | 505 kts | 69° |
| 2026-05-08 04:42 | 41.27296 | 10.35804 | 34649 ft | 514 kts | 70° |
| 2026-05-08 04:42 | 41.28603 | 10.40271 | 33549 ft | 521 kts | 70° |
| 2026-05-08 04:43 | 41.29921 | 10.44782 | 32556 ft | 522 kts | 70° |
| 2026-05-08 04:43 | 41.31229 | 10.49265 | 31612 ft | 522 kts | 70° |
| 2026-05-08 04:43 | 41.32520 | 10.53698 | 30711 ft | 521 kts | 70° |
| 2026-05-08 04:43 | 41.33815 | 10.58148 | 30110 ft | 514 kts | 70° |
| 2026-05-08 04:44 | 41.35088 | 10.62536 | 29626 ft | 506 kts | 70° |
| 2026-05-08 04:44 | 41.36360 | 10.66925 | 29068 ft | 500 kts | 71° |
| 2026-05-08 04:44 | 41.37601 | 10.71214 | 28501 ft | 494 kts | 71° |
| 2026-05-08 04:44 | 41.38808 | 10.75394 | 27947 ft | 489 kts | 71° |
| 2026-05-08 04:45 | 41.40026 | 10.79619 | 27372 ft | 483 kts | 71° |
| 2026-05-08 04:45 | 41.41221 | 10.83770 | 26800 ft | 479 kts | 71° |
| 2026-05-08 04:45 | 41.42397 | 10.87864 | 26232 ft | 474 kts | 71° |
| 2026-05-08 04:45 | 41.43559 | 10.91914 | 25665 ft | 469 kts | 70° |
| 2026-05-08 04:46 | 41.44715 | 10.95951 | 25096 ft | 465 kts | 71° |
| 2026-05-08 04:46 | 41.45863 | 10.99965 | 24515 ft | 460 kts | 71° |
| 2026-05-08 04:46 | 41.46986 | 11.03900 | 23957 ft | 456 kts | 70° |
| 2026-05-08 04:46 | 41.48101 | 11.07813 | 23393 ft | 452 kts | 71° |
| 2026-05-08 04:47 | 41.49199 | 11.11701 | 22843 ft | 448 kts | 71° |
| 2026-05-08 04:47 | 41.50285 | 11.15560 | 22277 ft | 445 kts | 71° |
| 2026-05-08 04:47 | 41.51366 | 11.19406 | 21714 ft | 441 kts | 71° |
| 2026-05-08 04:47 | 41.52435 | 11.23216 | 21148 ft | 438 kts | 71° |
| 2026-05-08 04:48 | 41.53488 | 11.26973 | 20576 ft | 435 kts | 71° |
| 2026-05-08 04:48 | 41.54540 | 11.30732 | 19999 ft | 431 kts | 71° |
| 2026-05-08 04:48 | 41.55568 | 11.34410 | 19431 ft | 427 kts | 71° |
| 2026-05-08 04:48 | 41.56610 | 11.38142 | 18860 ft | 423 kts | 71° |
| 2026-05-08 04:49 | 41.57628 | 11.41794 | 18304 ft | 419 kts | 71° |
| 2026-05-08 04:49 | 41.58640 | 11.45398 | 17736 ft | 415 kts | 71° |
| 2026-05-08 04:49 | 41.59650 | 11.48968 | 17193 ft | 411 kts | 71° |
| 2026-05-08 04:49 | 41.60648 | 11.52500 | 16642 ft | 407 kts | 71° |
| 2026-05-08 04:50 | 41.61638 | 11.56011 | 16084 ft | 404 kts | 70° |
| 2026-05-08 04:50 | 41.62616 | 11.59486 | 15529 ft | 400 kts | 70° |
| 2026-05-08 04:50 | 41.63583 | 11.62924 | 14980 ft | 396 kts | 70° |
| 2026-05-08 04:50 | 41.64549 | 11.66367 | 14420 ft | 392 kts | 71° |
| 2026-05-08 04:51 | 41.65500 | 11.69760 | 13878 ft | 387 kts | 71° |
| 2026-05-08 04:51 | 41.66432 | 11.73088 | 13446 ft | 380 kts | 70° |
| 2026-05-08 04:51 | 41.67336 | 11.76322 | 13353 ft | 363 kts | 70° |
| 2026-05-08 04:51 | 41.68196 | 11.79401 | 13249 ft | 349 kts | 70° |
| 2026-05-08 04:52 | 41.69032 | 11.82398 | 13112 ft | 336 kts | 70° |
| 2026-05-08 04:52 | 41.69832 | 11.85272 | 12966 ft | 325 kts | 70° |
| 2026-05-08 04:52 | 41.70600 | 11.88033 | 12824 ft | 314 kts | 70° |
| 2026-05-08 04:52 | 41.71349 | 11.90737 | 12660 ft | 304 kts | 70° |
| 2026-05-08 04:53 | 41.72072 | 11.93349 | 12502 ft | 295 kts | 70° |
| 2026-05-08 04:53 | 41.72778 | 11.95903 | 12358 ft | 290 kts | 70° |
| 2026-05-08 04:53 | 41.73560 | 11.98379 | 12199 ft | 290 kts | 58° |
| 2026-05-08 04:53 | 41.74937 | 12.00341 | 12051 ft | 293 kts | 35° |
| 2026-05-08 04:54 | 41.76821 | 12.01388 | 11884 ft | 296 kts | 11° |
| 2026-05-08 04:54 | 41.78877 | 12.01326 | 11736 ft | 299 kts | 351° |
| 2026-05-08 04:54 | 41.80892 | 12.00657 | 11588 ft | 299 kts | 345° |
| 2026-05-08 04:54 | 41.82883 | 11.99845 | 11442 ft | 297 kts | 344° |
| 2026-05-08 04:55 | 41.84859 | 11.99010 | 11283 ft | 296 kts | 344° |
| 2026-05-08 04:55 | 41.86809 | 11.98183 | 11132 ft | 295 kts | 344° |
| 2026-05-08 04:55 | 41.88762 | 11.97356 | 11003 ft | 293 kts | 344° |
| 2026-05-08 04:55 | 41.90705 | 11.96532 | 10912 ft | 293 kts | 344° |
| 2026-05-08 04:56 | 41.92655 | 11.95707 | 10780 ft | 293 kts | 344° |
| 2026-05-08 04:56 | 41.94600 | 11.94882 | 10633 ft | 292 kts | 344° |
| 2026-05-08 04:56 | 41.96538 | 11.94059 | 10485 ft | 291 kts | 344° |
| 2026-05-08 04:56 | 41.98464 | 11.93242 | 10338 ft | 290 kts | 344° |
| 2026-05-08 04:57 | 42.00383 | 11.92426 | 10192 ft | 289 kts | 343° |
| 2026-05-08 04:57 | 42.02290 | 11.91616 | 10043 ft | 285 kts | 344° |
| 2026-05-08 04:57 | 42.04168 | 11.90816 | 9899 ft | 278 kts | 344° |
| 2026-05-08 04:57 | 42.05979 | 11.90045 | 9767 ft | 269 kts | 344° |
| 2026-05-08 04:58 | 42.07731 | 11.89299 | 9636 ft | 260 kts | 343° |
| 2026-05-08 04:58 | 42.09427 | 11.88577 | 9508 ft | 252 kts | 343° |
| 2026-05-08 04:58 | 42.11075 | 11.87873 | 9387 ft | 250 kts | 343° |
| 2026-05-08 04:58 | 42.12746 | 11.87160 | 9263 ft | 250 kts | 343° |
| 2026-05-08 04:59 | 42.14388 | 11.86458 | 9135 ft | 249 kts | 343° |
| 2026-05-08 04:59 | 42.16037 | 11.85752 | 9019 ft | 248 kts | 343° |
| 2026-05-08 04:59 | 42.17691 | 11.85045 | 8998 ft | 248 kts | 343° |
| 2026-05-08 04:59 | 42.19330 | 11.84343 | 8997 ft | 249 kts | 343° |
| 2026-05-08 05:00 | 42.20985 | 11.83635 | 9000 ft | 249 kts | 343° |
| 2026-05-08 05:00 | 42.22633 | 11.82929 | 9003 ft | 249 kts | 343° |
| 2026-05-08 05:00 | 42.24296 | 11.82216 | 9001 ft | 250 kts | 343° |
| 2026-05-08 05:00 | 42.25957 | 11.81503 | 9001 ft | 249 kts | 343° |
| 2026-05-08 05:01 | 42.27612 | 11.80793 | 9003 ft | 249 kts | 343° |
| 2026-05-08 05:01 | 42.29283 | 11.80158 | 8992 ft | 247 kts | 355° |
| 2026-05-08 05:01 | 42.30968 | 11.80423 | 8995 ft | 247 kts | 23° |
| 2026-05-08 05:01 | 42.32349 | 11.81743 | 8992 ft | 245 kts | 51° |
| 2026-05-08 05:02 | 42.33192 | 11.83759 | 9012 ft | 247 kts | 67° |
| 2026-05-08 05:02 | 42.33790 | 11.85950 | 9013 ft | 248 kts | 71° |
| 2026-05-08 05:02 | 42.34319 | 11.88142 | 9011 ft | 247 kts | 71° |
| 2026-05-08 05:02 | 42.34727 | 11.90403 | 9001 ft | 248 kts | 88° |
| 2026-05-08 05:03 | 42.34379 | 11.92684 | 9003 ft | 250 kts | 117° |
| 2026-05-08 05:03 | 42.33263 | 11.94444 | 9003 ft | 253 kts | 146° |
| 2026-05-08 05:03 | 42.31664 | 11.95513 | 9015 ft | 255 kts | 158° |
| 2026-05-08 05:03 | 42.29994 | 11.96287 | 9016 ft | 255 kts | 161° |
| 2026-05-08 05:04 | 42.28304 | 11.97011 | 9011 ft | 255 kts | 161° |
| 2026-05-08 05:04 | 42.26614 | 11.97729 | 8913 ft | 254 kts | 161° |
| 2026-05-08 05:04 | 42.24882 | 11.98467 | 8141 ft | 275 kts | 161° |
| 2026-05-08 05:04 | 42.23020 | 11.99261 | 7203 ft | 289 kts | 161° |
| 2026-05-08 05:05 | 42.21082 | 12.00085 | 6451 ft | 292 kts | 161° |
| 2026-05-08 05:05 | 42.19175 | 12.00896 | 5752 ft | 292 kts | 162° |
| 2026-05-08 05:05 | 42.17266 | 12.01710 | 5289 ft | 283 kts | 161° |
| 2026-05-08 05:05 | 42.15412 | 12.02502 | 4876 ft | 274 kts | 161° |
| 2026-05-08 05:06 | 42.13615 | 12.03268 | 4440 ft | 267 kts | 161° |
| 2026-05-08 05:06 | 42.11940 | 12.04254 | 3980 ft | 261 kts | 142° |
| 2026-05-08 05:06 | 42.10634 | 12.05842 | 3706 ft | 248 kts | 133° |
| 2026-05-08 05:06 | 42.09464 | 12.07503 | 3551 ft | 233 kts | 132° |
| 2026-05-08 05:07 | 42.08370 | 12.09096 | 3405 ft | 225 kts | 131° |
| 2026-05-08 05:07 | 42.07321 | 12.10631 | 3207 ft | 221 kts | 131° |
| 2026-05-08 05:07 | 42.06294 | 12.12132 | 3040 ft | 214 kts | 131° |
| 2026-05-08 05:07 | 42.05302 | 12.13584 | 3009 ft | 207 kts | 131° |
| 2026-05-08 05:08 | 42.04328 | 12.15011 | 3011 ft | 208 kts | 131° |
| 2026-05-08 05:08 | 42.03316 | 12.16493 | 3008 ft | 208 kts | 131° |
| 2026-05-08 05:08 | 42.02327 | 12.17940 | 3006 ft | 209 kts | 131° |
| 2026-05-08 05:08 | 42.01179 | 12.19112 | 3005 ft | 210 kts | 154° |
| 2026-05-08 05:09 | 41.99857 | 12.19758 | 2991 ft | 190 kts | 161° |
| 2026-05-08 05:09 | 41.98599 | 12.20280 | 2995 ft | 187 kts | 162° |
| 2026-05-08 05:09 | 41.97379 | 12.20786 | 2992 ft | 181 kts | 161° |
| 2026-05-08 05:09 | 41.96164 | 12.21244 | 2972 ft | 179 kts | 162° |
| 2026-05-08 05:10 | 41.94991 | 12.21796 | 2720 ft | 179 kts | 159° |
| 2026-05-08 05:10 | 41.92683 | 12.22778 | 1990 ft | 166 kts | 161° |
| 2026-05-08 05:10 | 41.91601 | 12.23230 | 1626 ft | 157 kts | 161° |
| 2026-05-08 05:11 | 41.90591 | 12.23653 | 1286 ft | 151 kts | 161° |
| 2026-05-08 05:11 | 41.89614 | 12.24058 | 1074 ft | 144 kts | 161° |
| 2026-05-08 05:11 | 41.88650 | 12.24434 | 855 ft | 143 kts | 162° |
| 2026-05-08 05:11 | 41.87706 | 12.24821 | 695 ft | 143 kts | 160° |
| 2026-05-08 05:12 | 41.86756 | 12.25243 | 509 ft | 145 kts | 160° |
| 2026-05-08 05:12 | 41.85795 | 12.25671 | 321 ft | 145 kts | 160° |
| 2026-05-08 05:12 | 41.84831 | 12.26067 | 107 ft | 140 kts | 162° |
| 2026-05-08 05:12 | 41.83926 | 12.26434 | 18 ft | 129 kts | 162° |
| 2026-05-08 05:13 | 41.83163 | 12.26751 | 16 ft | 99 kts | 161° |
| 2026-05-08 05:13 | 41.82585 | 12.26998 | 16 ft | 77 kts | 163° |
| 2026-05-08 05:13 | 41.82191 | 12.27138 | 12 ft | 33 kts | 179° |
| 2026-05-08 05:13 | 41.81995 | 12.27123 | 16 ft | 25 kts | 189° |
| 2026-05-08 05:14 | 41.81834 | 12.27074 | 16 ft | 22 kts | 193° |
| 2026-05-08 05:14 | 41.81728 | 12.27040 | 16 ft | 16 kts | 186° |
| 2026-05-08 05:14 | 41.81611 | 12.27077 | 16 ft | 18 kts | 159° |
| 2026-05-08 05:14 | 41.81486 | 12.27136 | 15 ft | 15 kts | 161° |
| 2026-05-08 05:15 | 41.81377 | 12.27176 | 15 ft | 17 kts | 164° |
| 2026-05-08 05:15 | 41.81251 | 12.27224 | 15 ft | 19 kts | 163° |
| 2026-05-08 05:15 | 41.81153 | 12.27268 | 15 ft | 15 kts | 161° |
| 2026-05-08 05:15 | 41.81041 | 12.27315 | 16 ft | 18 kts | 162° |
| 2026-05-08 05:16 | 41.80914 | 12.27351 | 15 ft | 19 kts | 183° |
| 2026-05-08 05:16 | 41.80787 | 12.27321 | 15 ft | 15 kts | 192° |
| 2026-05-08 05:16 | 41.80748 | 12.27311 | 15 ft | 12 kts | 190° |
| 2026-05-08 05:16 | 41.80672 | 12.27268 | 15 ft | 10 kts | 221° |
| 2026-05-08 05:17 | 41.80635 | 12.27165 | 15 ft | 13 kts | 252° |
| 2026-05-08 05:17 | 41.80601 | 12.27028 | 15 ft | 16 kts | 251° |
| 2026-05-08 05:17 | 41.80559 | 12.26870 | 15 ft | 19 kts | 249° |
| 2026-05-08 05:17 | 41.80513 | 12.26695 | 15 ft | 20 kts | 245° |
| 2026-05-08 05:18 | 41.80461 | 12.26533 | 19 ft | 17 kts | 248° |
| 2026-05-08 05:18 | 41.80415 | 12.26389 | 19 ft | 15 kts | 237° |
| 2026-05-08 05:18 | 41.80339 | 12.26373 | 19 ft | 11 kts | 155° |
| 2026-05-08 05:18 | 41.80266 | 12.26406 | 19 ft | 11 kts | 176° |
| 2026-05-08 05:19 | 41.80191 | 12.26389 | 19 ft | 10 kts | 201° |
| 2026-05-08 05:19 | 41.80121 | 12.26352 | 19 ft | 10 kts | 204° |
| 2026-05-08 05:19 | 41.80055 | 12.26311 | 19 ft | 9 kts | 204° |
| 2026-05-08 05:19 | 41.79994 | 12.26276 | 20 ft | 8 kts | 201° |
| 2026-05-08 05:20 | 41.79944 | 12.26246 | 22 ft | 6 kts | 207° |
| 2026-05-08 05:20 | 41.79903 | 12.26218 | 22 ft | 6 kts | 206° |
| 2026-05-08 05:20 | 41.79862 | 12.26190 | 22 ft | 6 kts | 208° |
| 2026-05-08 05:20 | 41.79829 | 12.26147 | 22 ft | 6 kts | 244° |
| 2026-05-08 05:21 | 41.79826 | 12.26101 | 23 ft | 4 kts | 284° |
| 2026-05-08 05:21 | 41.79837 | 12.26070 | 24 ft | 0 kts | 295° |
| 2026-05-08 05:27 | 41.79841 | 12.26056 | 24 ft | 4 kts | 295° |
| 2026-05-08 05:27 | 41.79861 | 12.26002 | 25 ft | 7 kts | 295° |
| 2026-05-08 05:27 | 41.79890 | 12.25921 | 24 ft | 11 kts | 296° |
| 2026-05-08 05:28 | 41.79932 | 12.25808 | 23 ft | 15 kts | 295° |
| 2026-05-08 05:28 | 41.79981 | 12.25663 | 22 ft | 18 kts | 293° |
| 2026-05-08 05:28 | 41.80036 | 12.25494 | 21 ft | 20 kts | 293° |
| 2026-05-08 05:28 | 41.80107 | 12.25313 | 18 ft | 22 kts | 294° |
| 2026-05-08 05:29 | 41.80171 | 12.25121 | 15 ft | 22 kts | 295° |
| 2026-05-08 05:29 | 41.80204 | 12.24926 | 15 ft | 20 kts | 266° |
| 2026-05-08 05:29 | 41.80174 | 12.24743 | 15 ft | 19 kts | 252° |
| 2026-05-08 05:29 | 41.80129 | 12.24579 | 15 ft | 18 kts | 246° |
| 2026-05-08 05:30 | 41.80081 | 12.24428 | 15 ft | 17 kts | 247° |
| 2026-05-08 05:30 | 41.80043 | 12.24282 | 15 ft | 16 kts | 252° |
| 2026-05-08 05:30 | 41.80007 | 12.24141 | 15 ft | 15 kts | 249° |
| 2026-05-08 05:30 | 41.79980 | 12.24009 | 15 ft | 14 kts | 258° |
| 2026-05-08 05:31 | 41.79950 | 12.23882 | 15 ft | 13 kts | 250° |
| 2026-05-08 05:31 | 41.79916 | 12.23761 | 15 ft | 13 kts | 249° |
| 2026-05-08 05:31 | 41.79859 | 12.23679 | 15 ft | 12 kts | 182° |
| 2026-05-08 05:31 | 41.79777 | 12.23707 | 15 ft | 12 kts | 163° |
| 2026-05-08 05:32 | 41.79697 | 12.23741 | 15 ft | 11 kts | 161° |
| 2026-05-08 05:32 | 41.79620 | 12.23776 | 15 ft | 11 kts | 160° |
| 2026-05-08 05:32 | 41.79545 | 12.23812 | 15 ft | 11 kts | 163° |
| 2026-05-08 05:32 | 41.79472 | 12.23839 | 15 ft | 10 kts | 165° |
| 2026-05-08 05:33 | 41.79400 | 12.23864 | 15 ft | 10 kts | 166° |
| 2026-05-08 05:33 | 41.79333 | 12.23899 | 15 ft | 9 kts | 130° |
| 2026-05-08 05:33 | 41.79339 | 12.23982 | 15 ft | 9 kts | 60° |
| 2026-05-08 05:33 | 41.79392 | 12.24012 | 15 ft | 8 kts | 346° |
| 2026-05-08 05:34 | 41.79451 | 12.23985 | 15 ft | 9 kts | 340° |
| 2026-05-08 05:34 | 41.79510 | 12.23955 | 15 ft | 9 kts | 339° |
| 2026-05-08 05:34 | 41.79569 | 12.23926 | 15 ft | 9 kts | 339° |
| 2026-05-08 05:34 | 41.79628 | 12.23898 | 15 ft | 8 kts | 341° |
| 2026-05-08 05:35 | 41.79687 | 12.23895 | 15 ft | 7 kts | 26° |
| 2026-05-08 05:35 | 41.79698 | 12.23928 | 15 ft | 1 kts | 108° |
| 2026-05-08 05:35 | 41.79693 | 12.23940 | 15 ft | 1 kts | 123° |
| 2026-05-08 05:35 | 41.79686 | 12.23953 | 15 ft | 1 kts | 125° |
| 2026-05-08 05:36 | 41.79678 | 12.23969 | 15 ft | 2 kts | 127° |
| 2026-05-08 05:36 | 41.79668 | 12.23987 | 15 ft | 2 kts | 126° |
| 2026-05-08 05:36 | 41.79656 | 12.24006 | 16 ft | 2 kts | 128° |
| 2026-05-08 05:36 | 41.79647 | 12.24021 | 16 ft | 1 kts | 127° |
| 2026-05-08 05:37 | 41.79644 | 12.24027 | 16 ft | 0 kts | 128° |